<?xml version="1.0" encoding="UTF-8" standalone="no" ?>
<gpx xmlns="http://www.topografix.com/GPX/1/1" xmlns:xsi="http://www.w3.org/2001/XMLSchema-instance" xsi:schemaLocation="http://www.topografix.com/GPX/1/1 http://www.topografix.com/GPX/1/1/gpx.xsd" version="1.1" creator="VisuGPX - https://www.visugpx.com">
  <metadata>
    <name>LES CASCADES DU HERISSON AU DEPART DU PARKING DE LA FROMAGERIE</name>
    <desc><![CDATA[Depuis le parking de la Fromagerie La Chaux-du-Dombief,routes des cascades.Magnifique randonnée le long de la rivière "Le Hérisson"avec ses belles cascades, en cette saison peu d'eau mais un parcours sympathique bien ombragé mais parfois très glissant bien se chausser choisir une période hors vacances ou hors WK car ce 16 août 2018 beaucoup trop de monde donc pas facile pour les photos.Ne oublier au retour d'aller visiter le magasin "Boisselerie du Hérisson" très beaux objets en bois pour tous les goûts très bien réalisés à des prix raisonnables.Aussi 2 restaurants si vous avez un creux après ces 9 km de marche.]]></desc>
  </metadata>
  <trk>
    <name><![CDATA[2018-08-16-02]]></name>
    <desc><![CDATA[Belle marche]]></desc>
    <trkseg>
      <trkpt lat="46.61667" lon="5.88174">
        <ele>778.4</ele>
        <time>2018-08-16T07:58:48Z</time>
      </trkpt>
      <trkpt lat="46.61667" lon="5.88173">
        <ele>772.6</ele>
        <time>2018-08-16T07:58:49Z</time>
      </trkpt>
      <trkpt lat="46.61657" lon="5.88173">
        <ele>773.1</ele>
        <time>2018-08-16T07:58:59Z</time>
      </trkpt>
      <trkpt lat="46.61648" lon="5.88173">
        <ele>772.6</ele>
        <time>2018-08-16T07:59:09Z</time>
      </trkpt>
      <trkpt lat="46.61637" lon="5.88174">
        <ele>773.1</ele>
        <time>2018-08-16T07:59:19Z</time>
      </trkpt>
      <trkpt lat="46.61627" lon="5.8817">
        <ele>772.8</ele>
        <time>2018-08-16T07:59:28Z</time>
      </trkpt>
      <trkpt lat="46.61618" lon="5.88169">
        <ele>772.4</ele>
        <time>2018-08-16T07:59:36Z</time>
      </trkpt>
      <trkpt lat="46.61608" lon="5.8817">
        <ele>771.9</ele>
        <time>2018-08-16T07:59:44Z</time>
      </trkpt>
      <trkpt lat="46.61599" lon="5.88174">
        <ele>771.3</ele>
        <time>2018-08-16T07:59:54Z</time>
      </trkpt>
      <trkpt lat="46.6159" lon="5.88177">
        <ele>770.7</ele>
        <time>2018-08-16T08:00:07Z</time>
      </trkpt>
      <trkpt lat="46.61581" lon="5.88182">
        <ele>770.3</ele>
        <time>2018-08-16T08:00:20Z</time>
      </trkpt>
      <trkpt lat="46.61572" lon="5.88185">
        <ele>770</ele>
        <time>2018-08-16T08:00:32Z</time>
      </trkpt>
      <trkpt lat="46.61562" lon="5.88188">
        <ele>769.8</ele>
        <time>2018-08-16T08:00:40Z</time>
      </trkpt>
      <trkpt lat="46.61553" lon="5.88193">
        <ele>769.7</ele>
        <time>2018-08-16T08:00:47Z</time>
      </trkpt>
      <trkpt lat="46.61544" lon="5.88197">
        <ele>769.5</ele>
        <time>2018-08-16T08:00:58Z</time>
      </trkpt>
      <trkpt lat="46.61535" lon="5.88202">
        <ele>769.3</ele>
        <time>2018-08-16T08:01:09Z</time>
      </trkpt>
      <trkpt lat="46.61526" lon="5.88209">
        <ele>769.1</ele>
        <time>2018-08-16T08:01:17Z</time>
      </trkpt>
      <trkpt lat="46.61518" lon="5.88217">
        <ele>768.8</ele>
        <time>2018-08-16T08:01:27Z</time>
      </trkpt>
      <trkpt lat="46.61511" lon="5.88224">
        <ele>768.5</ele>
        <time>2018-08-16T08:01:35Z</time>
      </trkpt>
      <trkpt lat="46.61501" lon="5.88228">
        <ele>768.2</ele>
        <time>2018-08-16T08:01:44Z</time>
      </trkpt>
      <trkpt lat="46.61492" lon="5.88236">
        <ele>767.8</ele>
        <time>2018-08-16T08:01:58Z</time>
      </trkpt>
      <trkpt lat="46.61485" lon="5.88245">
        <ele>767.4</ele>
        <time>2018-08-16T08:02:06Z</time>
      </trkpt>
      <trkpt lat="46.61477" lon="5.88249">
        <ele>767</ele>
        <time>2018-08-16T08:02:18Z</time>
      </trkpt>
      <trkpt lat="46.61467" lon="5.88251">
        <ele>766.8</ele>
        <time>2018-08-16T08:02:29Z</time>
      </trkpt>
      <trkpt lat="46.61459" lon="5.88259">
        <ele>766.6</ele>
        <time>2018-08-16T08:02:38Z</time>
      </trkpt>
      <trkpt lat="46.61451" lon="5.88266">
        <ele>766.5</ele>
        <time>2018-08-16T08:02:49Z</time>
      </trkpt>
      <trkpt lat="46.61442" lon="5.8827">
        <ele>766.4</ele>
        <time>2018-08-16T08:03:05Z</time>
      </trkpt>
      <trkpt lat="46.61434" lon="5.88277">
        <ele>766.3</ele>
        <time>2018-08-16T08:03:12Z</time>
      </trkpt>
      <trkpt lat="46.61426" lon="5.88283">
        <ele>766.2</ele>
        <time>2018-08-16T08:03:19Z</time>
      </trkpt>
      <trkpt lat="46.61417" lon="5.88287">
        <ele>766.1</ele>
        <time>2018-08-16T08:03:31Z</time>
      </trkpt>
      <trkpt lat="46.61408" lon="5.88291">
        <ele>766</ele>
        <time>2018-08-16T08:03:38Z</time>
      </trkpt>
      <trkpt lat="46.61399" lon="5.88294">
        <ele>765.9</ele>
        <time>2018-08-16T08:03:46Z</time>
      </trkpt>
      <trkpt lat="46.61389" lon="5.883">
        <ele>765.7</ele>
        <time>2018-08-16T08:03:56Z</time>
      </trkpt>
      <trkpt lat="46.61381" lon="5.88308">
        <ele>765.6</ele>
        <time>2018-08-16T08:04:03Z</time>
      </trkpt>
      <trkpt lat="46.61373" lon="5.88315">
        <ele>765.5</ele>
        <time>2018-08-16T08:04:12Z</time>
      </trkpt>
      <trkpt lat="46.61366" lon="5.88324">
        <ele>765.2</ele>
        <time>2018-08-16T08:04:29Z</time>
      </trkpt>
      <trkpt lat="46.61357" lon="5.8833">
        <ele>764.9</ele>
        <time>2018-08-16T08:04:41Z</time>
      </trkpt>
      <trkpt lat="46.61347" lon="5.88335">
        <ele>764.7</ele>
        <time>2018-08-16T08:04:47Z</time>
      </trkpt>
      <trkpt lat="46.61338" lon="5.8834">
        <ele>764.5</ele>
        <time>2018-08-16T08:04:52Z</time>
      </trkpt>
      <trkpt lat="46.6133" lon="5.88347">
        <ele>764.2</ele>
        <time>2018-08-16T08:05:02Z</time>
      </trkpt>
      <trkpt lat="46.61321" lon="5.88351">
        <ele>763.8</ele>
        <time>2018-08-16T08:05:12Z</time>
      </trkpt>
      <trkpt lat="46.61312" lon="5.88355">
        <ele>763.4</ele>
        <time>2018-08-16T08:05:22Z</time>
      </trkpt>
      <trkpt lat="46.61302" lon="5.88359">
        <ele>763.1</ele>
        <time>2018-08-16T08:05:31Z</time>
      </trkpt>
      <trkpt lat="46.61294" lon="5.88369">
        <ele>762.9</ele>
        <time>2018-08-16T08:05:38Z</time>
      </trkpt>
      <trkpt lat="46.61285" lon="5.88374">
        <ele>762.6</ele>
        <time>2018-08-16T08:05:46Z</time>
      </trkpt>
      <trkpt lat="46.61276" lon="5.88376">
        <ele>762.3</ele>
        <time>2018-08-16T08:05:56Z</time>
      </trkpt>
      <trkpt lat="46.61268" lon="5.88384">
        <ele>761.9</ele>
        <time>2018-08-16T08:06:09Z</time>
      </trkpt>
      <trkpt lat="46.61258" lon="5.88383">
        <ele>761.6</ele>
        <time>2018-08-16T08:06:20Z</time>
      </trkpt>
      <trkpt lat="46.61248" lon="5.88381">
        <ele>761.4</ele>
        <time>2018-08-16T08:06:28Z</time>
      </trkpt>
      <trkpt lat="46.61239" lon="5.88379">
        <ele>761.2</ele>
        <time>2018-08-16T08:06:38Z</time>
      </trkpt>
      <trkpt lat="46.6123" lon="5.88383">
        <ele>760.9</ele>
        <time>2018-08-16T08:06:54Z</time>
      </trkpt>
      <trkpt lat="46.61221" lon="5.88379">
        <ele>760.2</ele>
        <time>2018-08-16T08:07:29Z</time>
      </trkpt>
      <trkpt lat="46.61212" lon="5.88381">
        <ele>759.8</ele>
        <time>2018-08-16T08:07:44Z</time>
      </trkpt>
      <trkpt lat="46.61206" lon="5.8839">
        <ele>759.5</ele>
        <time>2018-08-16T08:07:55Z</time>
      </trkpt>
      <trkpt lat="46.61196" lon="5.88389">
        <ele>759.3</ele>
        <time>2018-08-16T08:08:23Z</time>
      </trkpt>
      <trkpt lat="46.61197" lon="5.88375">
        <ele>758.8</ele>
        <time>2018-08-16T08:08:52Z</time>
      </trkpt>
      <trkpt lat="46.61197" lon="5.8836">
        <ele>758.5</ele>
        <time>2018-08-16T08:09:13Z</time>
      </trkpt>
      <trkpt lat="46.6119" lon="5.8835">
        <ele>757.9</ele>
        <time>2018-08-16T08:09:47Z</time>
      </trkpt>
      <trkpt lat="46.61181" lon="5.88352">
        <ele>757.8</ele>
        <time>2018-08-16T08:09:51Z</time>
      </trkpt>
      <trkpt lat="46.61176" lon="5.88362">
        <ele>757</ele>
        <time>2018-08-16T08:10:28Z</time>
      </trkpt>
      <trkpt lat="46.61177" lon="5.88376">
        <ele>756.7</ele>
        <time>2018-08-16T08:10:40Z</time>
      </trkpt>
      <trkpt lat="46.61178" lon="5.88389">
        <ele>756.4</ele>
        <time>2018-08-16T08:11:00Z</time>
      </trkpt>
      <trkpt lat="46.61177" lon="5.88404">
        <ele>756.1</ele>
        <time>2018-08-16T08:11:18Z</time>
      </trkpt>
      <trkpt lat="46.6118" lon="5.88391">
        <ele>755.5</ele>
        <time>2018-08-16T08:12:15Z</time>
      </trkpt>
      <trkpt lat="46.61175" lon="5.88377">
        <ele>755.4</ele>
        <time>2018-08-16T08:12:25Z</time>
      </trkpt>
      <trkpt lat="46.61173" lon="5.88364">
        <ele>755.2</ele>
        <time>2018-08-16T08:12:38Z</time>
      </trkpt>
      <trkpt lat="46.61168" lon="5.88377">
        <ele>755.2</ele>
        <time>2018-08-16T08:13:02Z</time>
      </trkpt>
      <trkpt lat="46.61175" lon="5.88368">
        <ele>755.2</ele>
        <time>2018-08-16T08:13:43Z</time>
      </trkpt>
      <trkpt lat="46.61174" lon="5.88355">
        <ele>755</ele>
        <time>2018-08-16T08:13:57Z</time>
      </trkpt>
      <trkpt lat="46.61168" lon="5.88345">
        <ele>754.5</ele>
        <time>2018-08-16T08:14:12Z</time>
      </trkpt>
      <trkpt lat="46.6116" lon="5.88337">
        <ele>754.1</ele>
        <time>2018-08-16T08:14:22Z</time>
      </trkpt>
      <trkpt lat="46.61159" lon="5.88324">
        <ele>753.2</ele>
        <time>2018-08-16T08:14:39Z</time>
      </trkpt>
      <trkpt lat="46.6116" lon="5.88309">
        <ele>752.5</ele>
        <time>2018-08-16T08:15:02Z</time>
      </trkpt>
      <trkpt lat="46.61162" lon="5.88295">
        <ele>752.2</ele>
        <time>2018-08-16T08:15:08Z</time>
      </trkpt>
      <trkpt lat="46.61164" lon="5.88282">
        <ele>751.7</ele>
        <time>2018-08-16T08:15:17Z</time>
      </trkpt>
      <trkpt lat="46.61164" lon="5.88268">
        <ele>751.4</ele>
        <time>2018-08-16T08:15:24Z</time>
      </trkpt>
      <trkpt lat="46.61162" lon="5.88254">
        <ele>751</ele>
        <time>2018-08-16T08:15:34Z</time>
      </trkpt>
      <trkpt lat="46.61159" lon="5.88241">
        <ele>750.5</ele>
        <time>2018-08-16T08:15:45Z</time>
      </trkpt>
      <trkpt lat="46.61151" lon="5.88231">
        <ele>749.1</ele>
        <time>2018-08-16T08:16:21Z</time>
      </trkpt>
      <trkpt lat="46.61144" lon="5.88222">
        <ele>748.7</ele>
        <time>2018-08-16T08:16:30Z</time>
      </trkpt>
      <trkpt lat="46.61137" lon="5.88212">
        <ele>748.4</ele>
        <time>2018-08-16T08:16:39Z</time>
      </trkpt>
      <trkpt lat="46.61128" lon="5.88204">
        <ele>748.1</ele>
        <time>2018-08-16T08:16:50Z</time>
      </trkpt>
      <trkpt lat="46.61119" lon="5.88198">
        <ele>747.8</ele>
        <time>2018-08-16T08:17:05Z</time>
      </trkpt>
      <trkpt lat="46.6111" lon="5.88192">
        <ele>747.6</ele>
        <time>2018-08-16T08:17:15Z</time>
      </trkpt>
      <trkpt lat="46.61104" lon="5.88182">
        <ele>747.4</ele>
        <time>2018-08-16T08:17:26Z</time>
      </trkpt>
      <trkpt lat="46.61099" lon="5.8817">
        <ele>747.2</ele>
        <time>2018-08-16T08:17:36Z</time>
      </trkpt>
      <trkpt lat="46.61096" lon="5.88158">
        <ele>747</ele>
        <time>2018-08-16T08:17:44Z</time>
      </trkpt>
      <trkpt lat="46.61091" lon="5.88146">
        <ele>746.7</ele>
        <time>2018-08-16T08:17:57Z</time>
      </trkpt>
      <trkpt lat="46.61082" lon="5.88138">
        <ele>746.5</ele>
        <time>2018-08-16T08:18:10Z</time>
      </trkpt>
      <trkpt lat="46.61076" lon="5.88125">
        <ele>746.4</ele>
        <time>2018-08-16T08:18:16Z</time>
      </trkpt>
      <trkpt lat="46.61067" lon="5.8812">
        <ele>746.1</ele>
        <time>2018-08-16T08:18:32Z</time>
      </trkpt>
      <trkpt lat="46.61077" lon="5.88117">
        <ele>745.8</ele>
        <time>2018-08-16T08:19:04Z</time>
      </trkpt>
      <trkpt lat="46.61079" lon="5.88103">
        <ele>745.5</ele>
        <time>2018-08-16T08:19:56Z</time>
      </trkpt>
      <trkpt lat="46.61084" lon="5.88092">
        <ele>745.3</ele>
        <time>2018-08-16T08:20:05Z</time>
      </trkpt>
      <trkpt lat="46.61093" lon="5.88084">
        <ele>745.1</ele>
        <time>2018-08-16T08:20:17Z</time>
      </trkpt>
      <trkpt lat="46.61095" lon="5.88071">
        <ele>744.9</ele>
        <time>2018-08-16T08:20:26Z</time>
      </trkpt>
      <trkpt lat="46.61102" lon="5.88061">
        <ele>744.9</ele>
        <time>2018-08-16T08:20:32Z</time>
      </trkpt>
      <trkpt lat="46.61107" lon="5.88049">
        <ele>744.8</ele>
        <time>2018-08-16T08:20:39Z</time>
      </trkpt>
      <trkpt lat="46.61113" lon="5.88039">
        <ele>744.7</ele>
        <time>2018-08-16T08:20:48Z</time>
      </trkpt>
      <trkpt lat="46.6112" lon="5.88029">
        <ele>744.6</ele>
        <time>2018-08-16T08:20:58Z</time>
      </trkpt>
      <trkpt lat="46.61126" lon="5.88017">
        <ele>744.5</ele>
        <time>2018-08-16T08:21:10Z</time>
      </trkpt>
      <trkpt lat="46.6113" lon="5.88004">
        <ele>744.3</ele>
        <time>2018-08-16T08:21:19Z</time>
      </trkpt>
      <trkpt lat="46.61135" lon="5.87991">
        <ele>744.2</ele>
        <time>2018-08-16T08:21:27Z</time>
      </trkpt>
      <trkpt lat="46.61138" lon="5.87978">
        <ele>744</ele>
        <time>2018-08-16T08:21:40Z</time>
      </trkpt>
      <trkpt lat="46.61142" lon="5.87965">
        <ele>743.8</ele>
        <time>2018-08-16T08:21:53Z</time>
      </trkpt>
      <trkpt lat="46.61148" lon="5.87954">
        <ele>743.6</ele>
        <time>2018-08-16T08:22:14Z</time>
      </trkpt>
      <trkpt lat="46.61152" lon="5.8794">
        <ele>743.4</ele>
        <time>2018-08-16T08:22:24Z</time>
      </trkpt>
      <trkpt lat="46.61156" lon="5.87928">
        <ele>743.3</ele>
        <time>2018-08-16T08:22:32Z</time>
      </trkpt>
      <trkpt lat="46.61162" lon="5.87918">
        <ele>743.2</ele>
        <time>2018-08-16T08:22:41Z</time>
      </trkpt>
      <trkpt lat="46.61169" lon="5.87908">
        <ele>743.2</ele>
        <time>2018-08-16T08:22:51Z</time>
      </trkpt>
      <trkpt lat="46.61179" lon="5.87909">
        <ele>743</ele>
        <time>2018-08-16T08:23:06Z</time>
      </trkpt>
      <trkpt lat="46.61188" lon="5.87906">
        <ele>743</ele>
        <time>2018-08-16T08:23:11Z</time>
      </trkpt>
      <trkpt lat="46.61195" lon="5.87897">
        <ele>742.8</ele>
        <time>2018-08-16T08:23:31Z</time>
      </trkpt>
      <trkpt lat="46.61198" lon="5.87884">
        <ele>742.7</ele>
        <time>2018-08-16T08:23:47Z</time>
      </trkpt>
      <trkpt lat="46.612" lon="5.8787">
        <ele>742.6</ele>
        <time>2018-08-16T08:23:54Z</time>
      </trkpt>
      <trkpt lat="46.61206" lon="5.8786">
        <ele>742.5</ele>
        <time>2018-08-16T08:24:06Z</time>
      </trkpt>
      <trkpt lat="46.61213" lon="5.8785">
        <ele>742.4</ele>
        <time>2018-08-16T08:24:16Z</time>
      </trkpt>
      <trkpt lat="46.61217" lon="5.87837">
        <ele>742.3</ele>
        <time>2018-08-16T08:24:28Z</time>
      </trkpt>
      <trkpt lat="46.6122" lon="5.87824">
        <ele>742.2</ele>
        <time>2018-08-16T08:24:37Z</time>
      </trkpt>
      <trkpt lat="46.6122" lon="5.8781">
        <ele>742.1</ele>
        <time>2018-08-16T08:24:45Z</time>
      </trkpt>
      <trkpt lat="46.61224" lon="5.87798">
        <ele>742.1</ele>
        <time>2018-08-16T08:24:53Z</time>
      </trkpt>
      <trkpt lat="46.61226" lon="5.87784">
        <ele>742</ele>
        <time>2018-08-16T08:25:08Z</time>
      </trkpt>
      <trkpt lat="46.61232" lon="5.87771">
        <ele>741.9</ele>
        <time>2018-08-16T08:25:19Z</time>
      </trkpt>
      <trkpt lat="46.61234" lon="5.87757">
        <ele>741.8</ele>
        <time>2018-08-16T08:25:30Z</time>
      </trkpt>
      <trkpt lat="46.6124" lon="5.87745">
        <ele>741.8</ele>
        <time>2018-08-16T08:25:38Z</time>
      </trkpt>
      <trkpt lat="46.61244" lon="5.87732">
        <ele>741.7</ele>
        <time>2018-08-16T08:25:48Z</time>
      </trkpt>
      <trkpt lat="46.61251" lon="5.87723">
        <ele>741.6</ele>
        <time>2018-08-16T08:25:59Z</time>
      </trkpt>
      <trkpt lat="46.61255" lon="5.87711">
        <ele>741.6</ele>
        <time>2018-08-16T08:26:08Z</time>
      </trkpt>
      <trkpt lat="46.61259" lon="5.87699">
        <ele>741.5</ele>
        <time>2018-08-16T08:26:15Z</time>
      </trkpt>
      <trkpt lat="46.61264" lon="5.87686">
        <ele>741.5</ele>
        <time>2018-08-16T08:26:23Z</time>
      </trkpt>
      <trkpt lat="46.61268" lon="5.87674">
        <ele>741.4</ele>
        <time>2018-08-16T08:26:33Z</time>
      </trkpt>
      <trkpt lat="46.61268" lon="5.87661">
        <ele>741.3</ele>
        <time>2018-08-16T08:26:47Z</time>
      </trkpt>
      <trkpt lat="46.61268" lon="5.87648">
        <ele>741.3</ele>
        <time>2018-08-16T08:26:54Z</time>
      </trkpt>
      <trkpt lat="46.61272" lon="5.87633">
        <ele>741.2</ele>
        <time>2018-08-16T08:27:04Z</time>
      </trkpt>
      <trkpt lat="46.61273" lon="5.87619">
        <ele>741.2</ele>
        <time>2018-08-16T08:27:13Z</time>
      </trkpt>
      <trkpt lat="46.61274" lon="5.87603">
        <ele>741.1</ele>
        <time>2018-08-16T08:27:22Z</time>
      </trkpt>
      <trkpt lat="46.61275" lon="5.87589">
        <ele>741.1</ele>
        <time>2018-08-16T08:27:33Z</time>
      </trkpt>
      <trkpt lat="46.61278" lon="5.87575">
        <ele>741</ele>
        <time>2018-08-16T08:27:40Z</time>
      </trkpt>
      <trkpt lat="46.61283" lon="5.87562">
        <ele>741</ele>
        <time>2018-08-16T08:27:49Z</time>
      </trkpt>
      <trkpt lat="46.61289" lon="5.87553">
        <ele>740.9</ele>
        <time>2018-08-16T08:28:03Z</time>
      </trkpt>
      <trkpt lat="46.61293" lon="5.8754">
        <ele>740.8</ele>
        <time>2018-08-16T08:28:13Z</time>
      </trkpt>
      <trkpt lat="46.61297" lon="5.87529">
        <ele>740.8</ele>
        <time>2018-08-16T08:28:22Z</time>
      </trkpt>
      <trkpt lat="46.61302" lon="5.87517">
        <ele>740.7</ele>
        <time>2018-08-16T08:28:31Z</time>
      </trkpt>
      <trkpt lat="46.61309" lon="5.87508">
        <ele>740.7</ele>
        <time>2018-08-16T08:28:37Z</time>
      </trkpt>
      <trkpt lat="46.61317" lon="5.87501">
        <ele>740.7</ele>
        <time>2018-08-16T08:28:47Z</time>
      </trkpt>
      <trkpt lat="46.61326" lon="5.87502">
        <ele>740.4</ele>
        <time>2018-08-16T08:29:24Z</time>
      </trkpt>
      <trkpt lat="46.61333" lon="5.87492">
        <ele>740.3</ele>
        <time>2018-08-16T08:29:31Z</time>
      </trkpt>
      <trkpt lat="46.61339" lon="5.87481">
        <ele>740.2</ele>
        <time>2018-08-16T08:29:40Z</time>
      </trkpt>
      <trkpt lat="46.61347" lon="5.87473">
        <ele>740.1</ele>
        <time>2018-08-16T08:29:48Z</time>
      </trkpt>
      <trkpt lat="46.61354" lon="5.87466">
        <ele>739.9</ele>
        <time>2018-08-16T08:30:10Z</time>
      </trkpt>
      <trkpt lat="46.61357" lon="5.87453">
        <ele>739.7</ele>
        <time>2018-08-16T08:30:30Z</time>
      </trkpt>
      <trkpt lat="46.61358" lon="5.8744">
        <ele>739.6</ele>
        <time>2018-08-16T08:30:42Z</time>
      </trkpt>
      <trkpt lat="46.61359" lon="5.87426">
        <ele>739.5</ele>
        <time>2018-08-16T08:30:48Z</time>
      </trkpt>
      <trkpt lat="46.61364" lon="5.87414">
        <ele>739.5</ele>
        <time>2018-08-16T08:30:57Z</time>
      </trkpt>
      <trkpt lat="46.61372" lon="5.87406">
        <ele>739.3</ele>
        <time>2018-08-16T08:31:09Z</time>
      </trkpt>
      <trkpt lat="46.61379" lon="5.87396">
        <ele>739.2</ele>
        <time>2018-08-16T08:31:15Z</time>
      </trkpt>
      <trkpt lat="46.61374" lon="5.87384">
        <ele>739.1</ele>
        <time>2018-08-16T08:31:31Z</time>
      </trkpt>
      <trkpt lat="46.61369" lon="5.87373">
        <ele>738.9</ele>
        <time>2018-08-16T08:31:42Z</time>
      </trkpt>
      <trkpt lat="46.61361" lon="5.87364">
        <ele>738.8</ele>
        <time>2018-08-16T08:31:52Z</time>
      </trkpt>
      <trkpt lat="46.61356" lon="5.87352">
        <ele>738.6</ele>
        <time>2018-08-16T08:32:14Z</time>
      </trkpt>
      <trkpt lat="46.61355" lon="5.87337">
        <ele>738.4</ele>
        <time>2018-08-16T08:32:23Z</time>
      </trkpt>
      <trkpt lat="46.61353" lon="5.87324">
        <ele>738.3</ele>
        <time>2018-08-16T08:32:29Z</time>
      </trkpt>
      <trkpt lat="46.61348" lon="5.87312">
        <ele>738.2</ele>
        <time>2018-08-16T08:32:36Z</time>
      </trkpt>
      <trkpt lat="46.61346" lon="5.87299">
        <ele>737.9</ele>
        <time>2018-08-16T08:32:56Z</time>
      </trkpt>
      <trkpt lat="46.61343" lon="5.87284">
        <ele>737.8</ele>
        <time>2018-08-16T08:33:02Z</time>
      </trkpt>
      <trkpt lat="46.6134" lon="5.8727">
        <ele>737.7</ele>
        <time>2018-08-16T08:33:14Z</time>
      </trkpt>
      <trkpt lat="46.61335" lon="5.87259">
        <ele>737.6</ele>
        <time>2018-08-16T08:33:25Z</time>
      </trkpt>
      <trkpt lat="46.61328" lon="5.87249">
        <ele>737.4</ele>
        <time>2018-08-16T08:33:34Z</time>
      </trkpt>
      <trkpt lat="46.61325" lon="5.87236">
        <ele>737.3</ele>
        <time>2018-08-16T08:33:45Z</time>
      </trkpt>
      <trkpt lat="46.61324" lon="5.87222">
        <ele>737.2</ele>
        <time>2018-08-16T08:33:56Z</time>
      </trkpt>
      <trkpt lat="46.61327" lon="5.87209">
        <ele>737</ele>
        <time>2018-08-16T08:34:07Z</time>
      </trkpt>
      <trkpt lat="46.61326" lon="5.87194">
        <ele>736.9</ele>
        <time>2018-08-16T08:34:13Z</time>
      </trkpt>
      <trkpt lat="46.61323" lon="5.8718">
        <ele>736.8</ele>
        <time>2018-08-16T08:34:20Z</time>
      </trkpt>
      <trkpt lat="46.61326" lon="5.87168">
        <ele>736.7</ele>
        <time>2018-08-16T08:34:28Z</time>
      </trkpt>
      <trkpt lat="46.61328" lon="5.87153">
        <ele>736.6</ele>
        <time>2018-08-16T08:34:37Z</time>
      </trkpt>
      <trkpt lat="46.61325" lon="5.87139">
        <ele>736.4</ele>
        <time>2018-08-16T08:34:45Z</time>
      </trkpt>
      <trkpt lat="46.61325" lon="5.87126">
        <ele>736.4</ele>
        <time>2018-08-16T08:34:51Z</time>
      </trkpt>
      <trkpt lat="46.6133" lon="5.87113">
        <ele>736.3</ele>
        <time>2018-08-16T08:34:59Z</time>
      </trkpt>
      <trkpt lat="46.61336" lon="5.87102">
        <ele>736.2</ele>
        <time>2018-08-16T08:35:11Z</time>
      </trkpt>
      <trkpt lat="46.61334" lon="5.87088">
        <ele>736</ele>
        <time>2018-08-16T08:35:29Z</time>
      </trkpt>
      <trkpt lat="46.61334" lon="5.87075">
        <ele>735.9</ele>
        <time>2018-08-16T08:35:39Z</time>
      </trkpt>
      <trkpt lat="46.61337" lon="5.87063">
        <ele>735.8</ele>
        <time>2018-08-16T08:35:51Z</time>
      </trkpt>
      <trkpt lat="46.61335" lon="5.87048">
        <ele>735.8</ele>
        <time>2018-08-16T08:35:58Z</time>
      </trkpt>
      <trkpt lat="46.61334" lon="5.87034">
        <ele>735.8</ele>
        <time>2018-08-16T08:36:03Z</time>
      </trkpt>
      <trkpt lat="46.61332" lon="5.87021">
        <ele>735.7</ele>
        <time>2018-08-16T08:36:12Z</time>
      </trkpt>
      <trkpt lat="46.61332" lon="5.87008">
        <ele>735.6</ele>
        <time>2018-08-16T08:36:21Z</time>
      </trkpt>
      <trkpt lat="46.61336" lon="5.86994">
        <ele>735.5</ele>
        <time>2018-08-16T08:36:30Z</time>
      </trkpt>
      <trkpt lat="46.61342" lon="5.86983">
        <ele>735.4</ele>
        <time>2018-08-16T08:36:43Z</time>
      </trkpt>
      <trkpt lat="46.61346" lon="5.8697">
        <ele>735.2</ele>
        <time>2018-08-16T08:37:03Z</time>
      </trkpt>
      <trkpt lat="46.61351" lon="5.86959">
        <ele>735.1</ele>
        <time>2018-08-16T08:37:10Z</time>
      </trkpt>
      <trkpt lat="46.61352" lon="5.86945">
        <ele>735</ele>
        <time>2018-08-16T08:37:18Z</time>
      </trkpt>
      <trkpt lat="46.61351" lon="5.86932">
        <ele>734.9</ele>
        <time>2018-08-16T08:37:26Z</time>
      </trkpt>
      <trkpt lat="46.61354" lon="5.86919">
        <ele>734.8</ele>
        <time>2018-08-16T08:37:38Z</time>
      </trkpt>
      <trkpt lat="46.6136" lon="5.86908">
        <ele>734.7</ele>
        <time>2018-08-16T08:37:45Z</time>
      </trkpt>
      <trkpt lat="46.61368" lon="5.869">
        <ele>734.6</ele>
        <time>2018-08-16T08:37:57Z</time>
      </trkpt>
      <trkpt lat="46.61376" lon="5.86894">
        <ele>734.5</ele>
        <time>2018-08-16T08:38:15Z</time>
      </trkpt>
      <trkpt lat="46.61381" lon="5.86882">
        <ele>734.4</ele>
        <time>2018-08-16T08:38:22Z</time>
      </trkpt>
      <trkpt lat="46.61389" lon="5.86875">
        <ele>734.2</ele>
        <time>2018-08-16T08:38:33Z</time>
      </trkpt>
      <trkpt lat="46.61397" lon="5.86865">
        <ele>734</ele>
        <time>2018-08-16T08:38:44Z</time>
      </trkpt>
      <trkpt lat="46.61404" lon="5.86856">
        <ele>733.8</ele>
        <time>2018-08-16T08:38:59Z</time>
      </trkpt>
      <trkpt lat="46.6141" lon="5.86846">
        <ele>733.4</ele>
        <time>2018-08-16T08:39:28Z</time>
      </trkpt>
      <trkpt lat="46.61413" lon="5.86833">
        <ele>733.2</ele>
        <time>2018-08-16T08:39:42Z</time>
      </trkpt>
      <trkpt lat="46.61416" lon="5.86818">
        <ele>733.1</ele>
        <time>2018-08-16T08:39:58Z</time>
      </trkpt>
      <trkpt lat="46.61417" lon="5.86804">
        <ele>733</ele>
        <time>2018-08-16T08:40:07Z</time>
      </trkpt>
      <trkpt lat="46.61423" lon="5.86793">
        <ele>732.9</ele>
        <time>2018-08-16T08:40:18Z</time>
      </trkpt>
      <trkpt lat="46.6142" lon="5.86808">
        <ele>732.7</ele>
        <time>2018-08-16T08:40:44Z</time>
      </trkpt>
      <trkpt lat="46.61423" lon="5.86821">
        <ele>732.5</ele>
        <time>2018-08-16T08:40:56Z</time>
      </trkpt>
      <trkpt lat="46.61423" lon="5.86834">
        <ele>732.1</ele>
        <time>2018-08-16T08:41:16Z</time>
      </trkpt>
      <trkpt lat="46.61423" lon="5.86847">
        <ele>731.8</ele>
        <time>2018-08-16T08:41:29Z</time>
      </trkpt>
      <trkpt lat="46.61427" lon="5.86859">
        <ele>731.3</ele>
        <time>2018-08-16T08:41:52Z</time>
      </trkpt>
      <trkpt lat="46.61426" lon="5.86846">
        <ele>729.8</ele>
        <time>2018-08-16T08:42:57Z</time>
      </trkpt>
      <trkpt lat="46.61429" lon="5.86834">
        <ele>729.4</ele>
        <time>2018-08-16T08:43:12Z</time>
      </trkpt>
      <trkpt lat="46.61432" lon="5.86821">
        <ele>729.1</ele>
        <time>2018-08-16T08:43:27Z</time>
      </trkpt>
      <trkpt lat="46.61436" lon="5.86809">
        <ele>728.7</ele>
        <time>2018-08-16T08:43:47Z</time>
      </trkpt>
      <trkpt lat="46.61441" lon="5.86797">
        <ele>728.3</ele>
        <time>2018-08-16T08:44:01Z</time>
      </trkpt>
      <trkpt lat="46.61441" lon="5.86783">
        <ele>728.1</ele>
        <time>2018-08-16T08:44:10Z</time>
      </trkpt>
      <trkpt lat="46.61439" lon="5.86768">
        <ele>727.8</ele>
        <time>2018-08-16T08:44:22Z</time>
      </trkpt>
      <trkpt lat="46.61441" lon="5.86755">
        <ele>727.6</ele>
        <time>2018-08-16T08:44:28Z</time>
      </trkpt>
      <trkpt lat="46.61442" lon="5.86739">
        <ele>727.4</ele>
        <time>2018-08-16T08:44:35Z</time>
      </trkpt>
      <trkpt lat="46.6145" lon="5.86731">
        <ele>727</ele>
        <time>2018-08-16T08:44:57Z</time>
      </trkpt>
      <trkpt lat="46.61456" lon="5.86721">
        <ele>726.9</ele>
        <time>2018-08-16T08:45:05Z</time>
      </trkpt>
      <trkpt lat="46.61461" lon="5.86708">
        <ele>726.7</ele>
        <time>2018-08-16T08:45:15Z</time>
      </trkpt>
      <trkpt lat="46.61462" lon="5.86694">
        <ele>726.6</ele>
        <time>2018-08-16T08:45:21Z</time>
      </trkpt>
      <trkpt lat="46.61468" lon="5.86683">
        <ele>726.4</ele>
        <time>2018-08-16T08:45:32Z</time>
      </trkpt>
      <trkpt lat="46.61476" lon="5.86674">
        <ele>726.3</ele>
        <time>2018-08-16T08:45:39Z</time>
      </trkpt>
      <trkpt lat="46.61484" lon="5.86667">
        <ele>726.2</ele>
        <time>2018-08-16T08:45:48Z</time>
      </trkpt>
      <trkpt lat="46.61492" lon="5.86659">
        <ele>726.1</ele>
        <time>2018-08-16T08:45:56Z</time>
      </trkpt>
      <trkpt lat="46.61496" lon="5.86648">
        <ele>725.9</ele>
        <time>2018-08-16T08:46:17Z</time>
      </trkpt>
      <trkpt lat="46.61502" lon="5.86637">
        <ele>725.6</ele>
        <time>2018-08-16T08:46:34Z</time>
      </trkpt>
      <trkpt lat="46.61508" lon="5.86624">
        <ele>725.1</ele>
        <time>2018-08-16T08:47:13Z</time>
      </trkpt>
      <trkpt lat="46.61516" lon="5.86631">
        <ele>724.8</ele>
        <time>2018-08-16T08:47:35Z</time>
      </trkpt>
      <trkpt lat="46.61525" lon="5.86635">
        <ele>724.5</ele>
        <time>2018-08-16T08:47:51Z</time>
      </trkpt>
      <trkpt lat="46.61517" lon="5.8664">
        <ele>723.8</ele>
        <time>2018-08-16T08:48:35Z</time>
      </trkpt>
      <trkpt lat="46.61509" lon="5.86625">
        <ele>721.8</ele>
        <time>2018-08-16T08:50:14Z</time>
      </trkpt>
      <trkpt lat="46.61505" lon="5.86614">
        <ele>721.7</ele>
        <time>2018-08-16T08:50:20Z</time>
      </trkpt>
      <trkpt lat="46.61505" lon="5.866">
        <ele>721.4</ele>
        <time>2018-08-16T08:50:35Z</time>
      </trkpt>
      <trkpt lat="46.61502" lon="5.86586">
        <ele>721</ele>
        <time>2018-08-16T08:51:02Z</time>
      </trkpt>
      <trkpt lat="46.61503" lon="5.86573">
        <ele>719.9</ele>
        <time>2018-08-16T08:51:40Z</time>
      </trkpt>
      <trkpt lat="46.61505" lon="5.86559">
        <ele>719.6</ele>
        <time>2018-08-16T08:51:52Z</time>
      </trkpt>
      <trkpt lat="46.61508" lon="5.86546">
        <ele>719.3</ele>
        <time>2018-08-16T08:52:02Z</time>
      </trkpt>
      <trkpt lat="46.61507" lon="5.86533">
        <ele>718.8</ele>
        <time>2018-08-16T08:52:23Z</time>
      </trkpt>
      <trkpt lat="46.6151" lon="5.8652">
        <ele>718.4</ele>
        <time>2018-08-16T08:52:44Z</time>
      </trkpt>
      <trkpt lat="46.61507" lon="5.86507">
        <ele>718.2</ele>
        <time>2018-08-16T08:52:57Z</time>
      </trkpt>
      <trkpt lat="46.61501" lon="5.86496">
        <ele>717.9</ele>
        <time>2018-08-16T08:53:16Z</time>
      </trkpt>
      <trkpt lat="46.61499" lon="5.86483">
        <ele>717.8</ele>
        <time>2018-08-16T08:53:37Z</time>
      </trkpt>
      <trkpt lat="46.61499" lon="5.86469">
        <ele>717.7</ele>
        <time>2018-08-16T08:53:45Z</time>
      </trkpt>
      <trkpt lat="46.61501" lon="5.86456">
        <ele>717.6</ele>
        <time>2018-08-16T08:53:55Z</time>
      </trkpt>
      <trkpt lat="46.61502" lon="5.86441">
        <ele>717.4</ele>
        <time>2018-08-16T08:54:25Z</time>
      </trkpt>
      <trkpt lat="46.61508" lon="5.86432">
        <ele>717.3</ele>
        <time>2018-08-16T08:54:38Z</time>
      </trkpt>
      <trkpt lat="46.61518" lon="5.86431">
        <ele>717</ele>
        <time>2018-08-16T08:54:59Z</time>
      </trkpt>
      <trkpt lat="46.61526" lon="5.86423">
        <ele>716.5</ele>
        <time>2018-08-16T08:55:43Z</time>
      </trkpt>
      <trkpt lat="46.61528" lon="5.86409">
        <ele>716.4</ele>
        <time>2018-08-16T08:55:59Z</time>
      </trkpt>
      <trkpt lat="46.61524" lon="5.86397">
        <ele>716.4</ele>
        <time>2018-08-16T08:56:10Z</time>
      </trkpt>
      <trkpt lat="46.6152" lon="5.86383">
        <ele>716.4</ele>
        <time>2018-08-16T08:56:26Z</time>
      </trkpt>
      <trkpt lat="46.61523" lon="5.8637">
        <ele>716.4</ele>
        <time>2018-08-16T08:56:49Z</time>
      </trkpt>
      <trkpt lat="46.61529" lon="5.86359">
        <ele>716.2</ele>
        <time>2018-08-16T08:57:08Z</time>
      </trkpt>
      <trkpt lat="46.61531" lon="5.86345">
        <ele>716.1</ele>
        <time>2018-08-16T08:57:22Z</time>
      </trkpt>
      <trkpt lat="46.61538" lon="5.86336">
        <ele>715.5</ele>
        <time>2018-08-16T08:58:18Z</time>
      </trkpt>
      <trkpt lat="46.61542" lon="5.8632">
        <ele>715.3</ele>
        <time>2018-08-16T08:58:38Z</time>
      </trkpt>
      <trkpt lat="46.61542" lon="5.86306">
        <ele>715.1</ele>
        <time>2018-08-16T08:58:49Z</time>
      </trkpt>
      <trkpt lat="46.61538" lon="5.86292">
        <ele>714.3</ele>
        <time>2018-08-16T08:59:56Z</time>
      </trkpt>
      <trkpt lat="46.61535" lon="5.86279">
        <ele>713.7</ele>
        <time>2018-08-16T09:00:14Z</time>
      </trkpt>
      <trkpt lat="46.6154" lon="5.86268">
        <ele>713.2</ele>
        <time>2018-08-16T09:00:29Z</time>
      </trkpt>
      <trkpt lat="46.61532" lon="5.8626">
        <ele>712.5</ele>
        <time>2018-08-16T09:00:58Z</time>
      </trkpt>
      <trkpt lat="46.61525" lon="5.86244">
        <ele>712</ele>
        <time>2018-08-16T09:01:20Z</time>
      </trkpt>
      <trkpt lat="46.61515" lon="5.86239">
        <ele>711.8</ele>
        <time>2018-08-16T09:01:30Z</time>
      </trkpt>
      <trkpt lat="46.61507" lon="5.8623">
        <ele>711.6</ele>
        <time>2018-08-16T09:01:39Z</time>
      </trkpt>
      <trkpt lat="46.61503" lon="5.86217">
        <ele>711.3</ele>
        <time>2018-08-16T09:01:56Z</time>
      </trkpt>
      <trkpt lat="46.61494" lon="5.8621">
        <ele>711.2</ele>
        <time>2018-08-16T09:02:08Z</time>
      </trkpt>
      <trkpt lat="46.6149" lon="5.86198">
        <ele>711</ele>
        <time>2018-08-16T09:02:29Z</time>
      </trkpt>
      <trkpt lat="46.61491" lon="5.86185">
        <ele>711</ele>
        <time>2018-08-16T09:02:38Z</time>
      </trkpt>
      <trkpt lat="46.615" lon="5.86191">
        <ele>710.7</ele>
        <time>2018-08-16T09:03:00Z</time>
      </trkpt>
      <trkpt lat="46.61509" lon="5.86203">
        <ele>710.6</ele>
        <time>2018-08-16T09:03:04Z</time>
      </trkpt>
      <trkpt lat="46.61512" lon="5.86216">
        <ele>710</ele>
        <time>2018-08-16T09:03:22Z</time>
      </trkpt>
      <trkpt lat="46.61507" lon="5.86229">
        <ele>708.8</ele>
        <time>2018-08-16T09:04:06Z</time>
      </trkpt>
      <trkpt lat="46.61509" lon="5.86242">
        <ele>708.5</ele>
        <time>2018-08-16T09:04:17Z</time>
      </trkpt>
      <trkpt lat="46.61511" lon="5.86228">
        <ele>708.1</ele>
        <time>2018-08-16T09:04:33Z</time>
      </trkpt>
      <trkpt lat="46.61507" lon="5.86215">
        <ele>707.8</ele>
        <time>2018-08-16T09:04:56Z</time>
      </trkpt>
      <trkpt lat="46.61506" lon="5.86201">
        <ele>707.7</ele>
        <time>2018-08-16T09:05:06Z</time>
      </trkpt>
      <trkpt lat="46.61503" lon="5.86189">
        <ele>707.5</ele>
        <time>2018-08-16T09:05:32Z</time>
      </trkpt>
      <trkpt lat="46.61497" lon="5.86179">
        <ele>707.4</ele>
        <time>2018-08-16T09:05:44Z</time>
      </trkpt>
      <trkpt lat="46.6149" lon="5.8617">
        <ele>707.2</ele>
        <time>2018-08-16T09:05:59Z</time>
      </trkpt>
      <trkpt lat="46.61489" lon="5.86157">
        <ele>705.9</ele>
        <time>2018-08-16T09:06:46Z</time>
      </trkpt>
      <trkpt lat="46.6149" lon="5.86143">
        <ele>705.6</ele>
        <time>2018-08-16T09:06:54Z</time>
      </trkpt>
      <trkpt lat="46.61487" lon="5.86128">
        <ele>705.4</ele>
        <time>2018-08-16T09:07:04Z</time>
      </trkpt>
      <trkpt lat="46.61478" lon="5.86123">
        <ele>705</ele>
        <time>2018-08-16T09:07:18Z</time>
      </trkpt>
      <trkpt lat="46.61479" lon="5.86108">
        <ele>703.9</ele>
        <time>2018-08-16T09:08:05Z</time>
      </trkpt>
      <trkpt lat="46.61478" lon="5.86095">
        <ele>703.7</ele>
        <time>2018-08-16T09:08:09Z</time>
      </trkpt>
      <trkpt lat="46.61477" lon="5.8608">
        <ele>703</ele>
        <time>2018-08-16T09:08:27Z</time>
      </trkpt>
      <trkpt lat="46.61484" lon="5.86069">
        <ele>702.6</ele>
        <time>2018-08-16T09:08:37Z</time>
      </trkpt>
      <trkpt lat="46.61477" lon="5.86059">
        <ele>701.5</ele>
        <time>2018-08-16T09:09:11Z</time>
      </trkpt>
      <trkpt lat="46.61471" lon="5.86048">
        <ele>701.2</ele>
        <time>2018-08-16T09:09:19Z</time>
      </trkpt>
      <trkpt lat="46.61462" lon="5.86044">
        <ele>700.8</ele>
        <time>2018-08-16T09:09:35Z</time>
      </trkpt>
      <trkpt lat="46.61453" lon="5.86037">
        <ele>700.3</ele>
        <time>2018-08-16T09:09:50Z</time>
      </trkpt>
      <trkpt lat="46.61445" lon="5.86032">
        <ele>700</ele>
        <time>2018-08-16T09:10:00Z</time>
      </trkpt>
      <trkpt lat="46.61433" lon="5.86029">
        <ele>699.7</ele>
        <time>2018-08-16T09:10:10Z</time>
      </trkpt>
      <trkpt lat="46.61424" lon="5.86035">
        <ele>699</ele>
        <time>2018-08-16T09:10:22Z</time>
      </trkpt>
      <trkpt lat="46.61418" lon="5.86022">
        <ele>698.7</ele>
        <time>2018-08-16T09:10:42Z</time>
      </trkpt>
      <trkpt lat="46.61418" lon="5.86009">
        <ele>697.8</ele>
        <time>2018-08-16T09:11:20Z</time>
      </trkpt>
      <trkpt lat="46.61416" lon="5.85995">
        <ele>697.5</ele>
        <time>2018-08-16T09:11:31Z</time>
      </trkpt>
      <trkpt lat="46.61415" lon="5.85981">
        <ele>697.1</ele>
        <time>2018-08-16T09:11:42Z</time>
      </trkpt>
      <trkpt lat="46.61409" lon="5.85971">
        <ele>696.5</ele>
        <time>2018-08-16T09:11:57Z</time>
      </trkpt>
      <trkpt lat="46.61407" lon="5.85957">
        <ele>695.3</ele>
        <time>2018-08-16T09:12:21Z</time>
      </trkpt>
      <trkpt lat="46.61406" lon="5.85944">
        <ele>694.7</ele>
        <time>2018-08-16T09:12:34Z</time>
      </trkpt>
      <trkpt lat="46.61399" lon="5.85934">
        <ele>694.2</ele>
        <time>2018-08-16T09:12:46Z</time>
      </trkpt>
      <trkpt lat="46.61394" lon="5.85923">
        <ele>693.7</ele>
        <time>2018-08-16T09:13:00Z</time>
      </trkpt>
      <trkpt lat="46.61391" lon="5.8591">
        <ele>693.3</ele>
        <time>2018-08-16T09:13:18Z</time>
      </trkpt>
      <trkpt lat="46.61387" lon="5.85898">
        <ele>692.8</ele>
        <time>2018-08-16T09:13:29Z</time>
      </trkpt>
      <trkpt lat="46.6138" lon="5.85887">
        <ele>692.2</ele>
        <time>2018-08-16T09:13:46Z</time>
      </trkpt>
      <trkpt lat="46.61373" lon="5.85879">
        <ele>691.9</ele>
        <time>2018-08-16T09:13:55Z</time>
      </trkpt>
      <trkpt lat="46.61368" lon="5.85866">
        <ele>691.6</ele>
        <time>2018-08-16T09:14:07Z</time>
      </trkpt>
      <trkpt lat="46.61376" lon="5.85873">
        <ele>690</ele>
        <time>2018-08-16T09:15:02Z</time>
      </trkpt>
      <trkpt lat="46.61384" lon="5.85881">
        <ele>689.4</ele>
        <time>2018-08-16T09:15:27Z</time>
      </trkpt>
      <trkpt lat="46.61383" lon="5.85895">
        <ele>688.2</ele>
        <time>2018-08-16T09:15:55Z</time>
      </trkpt>
      <trkpt lat="46.61386" lon="5.85908">
        <ele>687.9</ele>
        <time>2018-08-16T09:16:04Z</time>
      </trkpt>
      <trkpt lat="46.61389" lon="5.85921">
        <ele>686.9</ele>
        <time>2018-08-16T09:16:26Z</time>
      </trkpt>
      <trkpt lat="46.61399" lon="5.85924">
        <ele>681.7</ele>
        <time>2018-08-16T09:17:14Z</time>
      </trkpt>
      <trkpt lat="46.61411" lon="5.8592">
        <ele>681.4</ele>
        <time>2018-08-16T09:17:19Z</time>
      </trkpt>
      <trkpt lat="46.61403" lon="5.85911">
        <ele>677.2</ele>
        <time>2018-08-16T09:17:53Z</time>
      </trkpt>
      <trkpt lat="46.61396" lon="5.85901">
        <ele>676.2</ele>
        <time>2018-08-16T09:18:04Z</time>
      </trkpt>
      <trkpt lat="46.61387" lon="5.85896">
        <ele>675.5</ele>
        <time>2018-08-16T09:18:15Z</time>
      </trkpt>
      <trkpt lat="46.61378" lon="5.85889">
        <ele>674.2</ele>
        <time>2018-08-16T09:18:47Z</time>
      </trkpt>
      <trkpt lat="46.61373" lon="5.85877">
        <ele>674.6</ele>
        <time>2018-08-16T09:19:16Z</time>
      </trkpt>
      <trkpt lat="46.61373" lon="5.85862">
        <ele>675.6</ele>
        <time>2018-08-16T09:19:47Z</time>
      </trkpt>
      <trkpt lat="46.61372" lon="5.85849">
        <ele>675.6</ele>
        <time>2018-08-16T09:19:57Z</time>
      </trkpt>
      <trkpt lat="46.61369" lon="5.85835">
        <ele>675.3</ele>
        <time>2018-08-16T09:20:28Z</time>
      </trkpt>
      <trkpt lat="46.61369" lon="5.85821">
        <ele>674.2</ele>
        <time>2018-08-16T09:20:52Z</time>
      </trkpt>
      <trkpt lat="46.61372" lon="5.85808">
        <ele>673.8</ele>
        <time>2018-08-16T09:20:59Z</time>
      </trkpt>
      <trkpt lat="46.61374" lon="5.85795">
        <ele>673</ele>
        <time>2018-08-16T09:21:14Z</time>
      </trkpt>
      <trkpt lat="46.61377" lon="5.85782">
        <ele>672</ele>
        <time>2018-08-16T09:21:35Z</time>
      </trkpt>
      <trkpt lat="46.61375" lon="5.8577">
        <ele>671.5</ele>
        <time>2018-08-16T09:21:43Z</time>
      </trkpt>
      <trkpt lat="46.61377" lon="5.85757">
        <ele>669.4</ele>
        <time>2018-08-16T09:22:17Z</time>
      </trkpt>
      <trkpt lat="46.61379" lon="5.85744">
        <ele>668.2</ele>
        <time>2018-08-16T09:22:35Z</time>
      </trkpt>
      <trkpt lat="46.61371" lon="5.85736">
        <ele>666.7</ele>
        <time>2018-08-16T09:23:02Z</time>
      </trkpt>
      <trkpt lat="46.61366" lon="5.85723">
        <ele>666.2</ele>
        <time>2018-08-16T09:23:11Z</time>
      </trkpt>
      <trkpt lat="46.61368" lon="5.8571">
        <ele>665.4</ele>
        <time>2018-08-16T09:23:29Z</time>
      </trkpt>
      <trkpt lat="46.61374" lon="5.85698">
        <ele>665</ele>
        <time>2018-08-16T09:23:36Z</time>
      </trkpt>
      <trkpt lat="46.6138" lon="5.85688">
        <ele>663.9</ele>
        <time>2018-08-16T09:24:03Z</time>
      </trkpt>
      <trkpt lat="46.61383" lon="5.85675">
        <ele>662.5</ele>
        <time>2018-08-16T09:24:29Z</time>
      </trkpt>
      <trkpt lat="46.61384" lon="5.85662">
        <ele>661.5</ele>
        <time>2018-08-16T09:24:42Z</time>
      </trkpt>
      <trkpt lat="46.6139" lon="5.8565">
        <ele>660.4</ele>
        <time>2018-08-16T09:24:57Z</time>
      </trkpt>
      <trkpt lat="46.61395" lon="5.85638">
        <ele>658.8</ele>
        <time>2018-08-16T09:25:26Z</time>
      </trkpt>
      <trkpt lat="46.61399" lon="5.85626">
        <ele>656.8</ele>
        <time>2018-08-16T09:25:48Z</time>
      </trkpt>
      <trkpt lat="46.61407" lon="5.85637">
        <ele>656.2</ele>
        <time>2018-08-16T09:25:55Z</time>
      </trkpt>
      <trkpt lat="46.61411" lon="5.8565">
        <ele>655.8</ele>
        <time>2018-08-16T09:26:01Z</time>
      </trkpt>
      <trkpt lat="46.61404" lon="5.85639">
        <ele>654</ele>
        <time>2018-08-16T09:26:19Z</time>
      </trkpt>
      <trkpt lat="46.61405" lon="5.85626">
        <ele>651.4</ele>
        <time>2018-08-16T09:26:40Z</time>
      </trkpt>
      <trkpt lat="46.614" lon="5.85613">
        <ele>648.4</ele>
        <time>2018-08-16T09:27:09Z</time>
      </trkpt>
      <trkpt lat="46.61408" lon="5.85605">
        <ele>644.7</ele>
        <time>2018-08-16T09:28:05Z</time>
      </trkpt>
      <trkpt lat="46.61404" lon="5.85592">
        <ele>643.3</ele>
        <time>2018-08-16T09:28:37Z</time>
      </trkpt>
      <trkpt lat="46.61398" lon="5.85581">
        <ele>642.3</ele>
        <time>2018-08-16T09:28:51Z</time>
      </trkpt>
      <trkpt lat="46.61397" lon="5.85568">
        <ele>641.7</ele>
        <time>2018-08-16T09:29:04Z</time>
      </trkpt>
      <trkpt lat="46.61405" lon="5.85564">
        <ele>641.1</ele>
        <time>2018-08-16T09:29:23Z</time>
      </trkpt>
      <trkpt lat="46.61407" lon="5.85551">
        <ele>640</ele>
        <time>2018-08-16T09:29:41Z</time>
      </trkpt>
      <trkpt lat="46.61408" lon="5.85538">
        <ele>639.4</ele>
        <time>2018-08-16T09:29:52Z</time>
      </trkpt>
      <trkpt lat="46.61408" lon="5.85525">
        <ele>638.9</ele>
        <time>2018-08-16T09:30:03Z</time>
      </trkpt>
      <trkpt lat="46.61402" lon="5.85515">
        <ele>637.7</ele>
        <time>2018-08-16T09:30:26Z</time>
      </trkpt>
      <trkpt lat="46.61393" lon="5.85506">
        <ele>636.8</ele>
        <time>2018-08-16T09:30:47Z</time>
      </trkpt>
      <trkpt lat="46.61402" lon="5.85501">
        <ele>635.3</ele>
        <time>2018-08-16T09:31:29Z</time>
      </trkpt>
      <trkpt lat="46.61407" lon="5.85512">
        <ele>634.8</ele>
        <time>2018-08-16T09:31:45Z</time>
      </trkpt>
      <trkpt lat="46.61415" lon="5.85519">
        <ele>634.1</ele>
        <time>2018-08-16T09:32:10Z</time>
      </trkpt>
      <trkpt lat="46.61424" lon="5.85521">
        <ele>633.5</ele>
        <time>2018-08-16T09:32:32Z</time>
      </trkpt>
      <trkpt lat="46.61427" lon="5.85507">
        <ele>631.8</ele>
        <time>2018-08-16T09:33:43Z</time>
      </trkpt>
      <trkpt lat="46.61434" lon="5.85497">
        <ele>631.6</ele>
        <time>2018-08-16T09:33:53Z</time>
      </trkpt>
      <trkpt lat="46.61444" lon="5.8549">
        <ele>631.2</ele>
        <time>2018-08-16T09:34:15Z</time>
      </trkpt>
      <trkpt lat="46.61445" lon="5.85476">
        <ele>630.5</ele>
        <time>2018-08-16T09:34:38Z</time>
      </trkpt>
      <trkpt lat="46.61448" lon="5.85463">
        <ele>629.9</ele>
        <time>2018-08-16T09:34:52Z</time>
      </trkpt>
      <trkpt lat="46.61455" lon="5.85451">
        <ele>629.2</ele>
        <time>2018-08-16T09:35:06Z</time>
      </trkpt>
      <trkpt lat="46.6145" lon="5.85438">
        <ele>627.8</ele>
        <time>2018-08-16T09:35:29Z</time>
      </trkpt>
      <trkpt lat="46.61452" lon="5.85423">
        <ele>627.5</ele>
        <time>2018-08-16T09:35:35Z</time>
      </trkpt>
      <trkpt lat="46.61452" lon="5.8541">
        <ele>626.5</ele>
        <time>2018-08-16T09:35:55Z</time>
      </trkpt>
      <trkpt lat="46.61448" lon="5.85397">
        <ele>626.2</ele>
        <time>2018-08-16T09:36:02Z</time>
      </trkpt>
      <trkpt lat="46.61446" lon="5.85383">
        <ele>625.9</ele>
        <time>2018-08-16T09:36:10Z</time>
      </trkpt>
      <trkpt lat="46.61452" lon="5.85372">
        <ele>625.3</ele>
        <time>2018-08-16T09:36:28Z</time>
      </trkpt>
      <trkpt lat="46.61445" lon="5.85363">
        <ele>622.8</ele>
        <time>2018-08-16T09:37:16Z</time>
      </trkpt>
      <trkpt lat="46.61447" lon="5.85375">
        <ele>622.4</ele>
        <time>2018-08-16T09:37:31Z</time>
      </trkpt>
      <trkpt lat="46.61439" lon="5.8538">
        <ele>621.7</ele>
        <time>2018-08-16T09:37:48Z</time>
      </trkpt>
      <trkpt lat="46.61437" lon="5.85394">
        <ele>620.8</ele>
        <time>2018-08-16T09:38:11Z</time>
      </trkpt>
      <trkpt lat="46.61428" lon="5.85396">
        <ele>620.4</ele>
        <time>2018-08-16T09:38:19Z</time>
      </trkpt>
      <trkpt lat="46.61422" lon="5.8541">
        <ele>619.7</ele>
        <time>2018-08-16T09:38:35Z</time>
      </trkpt>
      <trkpt lat="46.61415" lon="5.85422">
        <ele>619.5</ele>
        <time>2018-08-16T09:38:39Z</time>
      </trkpt>
      <trkpt lat="46.61414" lon="5.85435">
        <ele>618.9</ele>
        <time>2018-08-16T09:38:55Z</time>
      </trkpt>
      <trkpt lat="46.61405" lon="5.8543">
        <ele>618.6</ele>
        <time>2018-08-16T09:39:03Z</time>
      </trkpt>
      <trkpt lat="46.61415" lon="5.8543">
        <ele>618</ele>
        <time>2018-08-16T09:39:13Z</time>
      </trkpt>
      <trkpt lat="46.61415" lon="5.85443">
        <ele>616.7</ele>
        <time>2018-08-16T09:39:35Z</time>
      </trkpt>
      <trkpt lat="46.61407" lon="5.85449">
        <ele>616.4</ele>
        <time>2018-08-16T09:39:42Z</time>
      </trkpt>
      <trkpt lat="46.61396" lon="5.85449">
        <ele>616.1</ele>
        <time>2018-08-16T09:39:49Z</time>
      </trkpt>
      <trkpt lat="46.61396" lon="5.85436">
        <ele>614.4</ele>
        <time>2018-08-16T09:40:28Z</time>
      </trkpt>
      <trkpt lat="46.61402" lon="5.85424">
        <ele>613.4</ele>
        <time>2018-08-16T09:40:40Z</time>
      </trkpt>
      <trkpt lat="46.61391" lon="5.85433">
        <ele>609.4</ele>
        <time>2018-08-16T09:41:28Z</time>
      </trkpt>
      <trkpt lat="46.61384" lon="5.85442">
        <ele>608.6</ele>
        <time>2018-08-16T09:41:40Z</time>
      </trkpt>
      <trkpt lat="46.61382" lon="5.85458">
        <ele>607.5</ele>
        <time>2018-08-16T09:41:51Z</time>
      </trkpt>
      <trkpt lat="46.61376" lon="5.85469">
        <ele>606.8</ele>
        <time>2018-08-16T09:42:04Z</time>
      </trkpt>
      <trkpt lat="46.61378" lon="5.85455">
        <ele>606.6</ele>
        <time>2018-08-16T09:42:12Z</time>
      </trkpt>
      <trkpt lat="46.6138" lon="5.8544">
        <ele>606.4</ele>
        <time>2018-08-16T09:42:17Z</time>
      </trkpt>
      <trkpt lat="46.61383" lon="5.85427">
        <ele>603.6</ele>
        <time>2018-08-16T09:42:35Z</time>
      </trkpt>
      <trkpt lat="46.61391" lon="5.85435">
        <ele>599.5</ele>
        <time>2018-08-16T09:43:03Z</time>
      </trkpt>
      <trkpt lat="46.61396" lon="5.85446">
        <ele>599.2</ele>
        <time>2018-08-16T09:43:13Z</time>
      </trkpt>
      <trkpt lat="46.614" lon="5.8546">
        <ele>599.1</ele>
        <time>2018-08-16T09:43:24Z</time>
      </trkpt>
      <trkpt lat="46.61398" lon="5.85473">
        <ele>596.5</ele>
        <time>2018-08-16T09:43:55Z</time>
      </trkpt>
      <trkpt lat="46.61404" lon="5.85461">
        <ele>595.7</ele>
        <time>2018-08-16T09:44:02Z</time>
      </trkpt>
      <trkpt lat="46.61408" lon="5.85447">
        <ele>595.7</ele>
        <time>2018-08-16T09:44:06Z</time>
      </trkpt>
      <trkpt lat="46.61412" lon="5.85435">
        <ele>595.9</ele>
        <time>2018-08-16T09:44:12Z</time>
      </trkpt>
      <trkpt lat="46.61404" lon="5.85427">
        <ele>594.2</ele>
        <time>2018-08-16T09:44:30Z</time>
      </trkpt>
      <trkpt lat="46.61395" lon="5.85414">
        <ele>593.6</ele>
        <time>2018-08-16T09:44:43Z</time>
      </trkpt>
      <trkpt lat="46.61403" lon="5.85406">
        <ele>592.3</ele>
        <time>2018-08-16T09:44:53Z</time>
      </trkpt>
      <trkpt lat="46.61399" lon="5.8542">
        <ele>591.4</ele>
        <time>2018-08-16T09:45:12Z</time>
      </trkpt>
      <trkpt lat="46.61397" lon="5.85434">
        <ele>590</ele>
        <time>2018-08-16T09:45:29Z</time>
      </trkpt>
      <trkpt lat="46.61398" lon="5.85448">
        <ele>589.9</ele>
        <time>2018-08-16T09:45:41Z</time>
      </trkpt>
      <trkpt lat="46.61394" lon="5.85437">
        <ele>586.8</ele>
        <time>2018-08-16T09:46:37Z</time>
      </trkpt>
      <trkpt lat="46.61402" lon="5.85432">
        <ele>582.6</ele>
        <time>2018-08-16T09:47:32Z</time>
      </trkpt>
      <trkpt lat="46.61397" lon="5.85443">
        <ele>582.6</ele>
        <time>2018-08-16T09:47:42Z</time>
      </trkpt>
      <trkpt lat="46.61397" lon="5.8543">
        <ele>580.8</ele>
        <time>2018-08-16T09:48:33Z</time>
      </trkpt>
      <trkpt lat="46.61397" lon="5.85443">
        <ele>580.6</ele>
        <time>2018-08-16T09:49:02Z</time>
      </trkpt>
      <trkpt lat="46.61401" lon="5.85432">
        <ele>580.2</ele>
        <time>2018-08-16T09:49:31Z</time>
      </trkpt>
      <trkpt lat="46.61392" lon="5.85427">
        <ele>580.2</ele>
        <time>2018-08-16T09:49:45Z</time>
      </trkpt>
      <trkpt lat="46.61394" lon="5.85441">
        <ele>581.8</ele>
        <time>2018-08-16T09:50:10Z</time>
      </trkpt>
      <trkpt lat="46.61399" lon="5.85453">
        <ele>582.4</ele>
        <time>2018-08-16T09:50:28Z</time>
      </trkpt>
      <trkpt lat="46.61395" lon="5.85441">
        <ele>582.4</ele>
        <time>2018-08-16T09:50:56Z</time>
      </trkpt>
      <trkpt lat="46.61396" lon="5.85428">
        <ele>581.6</ele>
        <time>2018-08-16T09:51:20Z</time>
      </trkpt>
      <trkpt lat="46.61405" lon="5.85423">
        <ele>581.2</ele>
        <time>2018-08-16T09:52:26Z</time>
      </trkpt>
      <trkpt lat="46.61407" lon="5.85436">
        <ele>580.9</ele>
        <time>2018-08-16T09:52:40Z</time>
      </trkpt>
      <trkpt lat="46.61405" lon="5.8545">
        <ele>580.9</ele>
        <time>2018-08-16T09:53:12Z</time>
      </trkpt>
      <trkpt lat="46.61404" lon="5.85464">
        <ele>581</ele>
        <time>2018-08-16T09:53:29Z</time>
      </trkpt>
      <trkpt lat="46.61413" lon="5.85459">
        <ele>580.3</ele>
        <time>2018-08-16T09:53:51Z</time>
      </trkpt>
      <trkpt lat="46.6142" lon="5.8545">
        <ele>578.9</ele>
        <time>2018-08-16T09:54:01Z</time>
      </trkpt>
      <trkpt lat="46.61426" lon="5.85437">
        <ele>572.8</ele>
        <time>2018-08-16T09:54:33Z</time>
      </trkpt>
      <trkpt lat="46.61433" lon="5.85428">
        <ele>572.1</ele>
        <time>2018-08-16T09:54:40Z</time>
      </trkpt>
      <trkpt lat="46.61436" lon="5.85415">
        <ele>572.4</ele>
        <time>2018-08-16T09:54:58Z</time>
      </trkpt>
      <trkpt lat="46.61443" lon="5.85406">
        <ele>573</ele>
        <time>2018-08-16T09:55:06Z</time>
      </trkpt>
      <trkpt lat="46.61448" lon="5.85395">
        <ele>574.4</ele>
        <time>2018-08-16T09:55:27Z</time>
      </trkpt>
      <trkpt lat="46.61455" lon="5.85387">
        <ele>575</ele>
        <time>2018-08-16T09:55:43Z</time>
      </trkpt>
      <trkpt lat="46.61462" lon="5.85378">
        <ele>573</ele>
        <time>2018-08-16T09:56:42Z</time>
      </trkpt>
      <trkpt lat="46.6146" lon="5.85391">
        <ele>582.9</ele>
        <time>2018-08-16T09:58:44Z</time>
      </trkpt>
      <trkpt lat="46.6146" lon="5.85378">
        <ele>582.8</ele>
        <time>2018-08-16T09:59:19Z</time>
      </trkpt>
      <trkpt lat="46.61464" lon="5.8539">
        <ele>586.2</ele>
        <time>2018-08-16T10:01:18Z</time>
      </trkpt>
      <trkpt lat="46.61462" lon="5.85405">
        <ele>586.1</ele>
        <time>2018-08-16T10:01:28Z</time>
      </trkpt>
      <trkpt lat="46.61462" lon="5.85418">
        <ele>586.1</ele>
        <time>2018-08-16T10:01:36Z</time>
      </trkpt>
      <trkpt lat="46.61459" lon="5.85433">
        <ele>586.1</ele>
        <time>2018-08-16T10:01:47Z</time>
      </trkpt>
      <trkpt lat="46.61457" lon="5.85447">
        <ele>586.2</ele>
        <time>2018-08-16T10:01:59Z</time>
      </trkpt>
      <trkpt lat="46.61457" lon="5.8546">
        <ele>586.3</ele>
        <time>2018-08-16T10:02:07Z</time>
      </trkpt>
      <trkpt lat="46.61452" lon="5.85472">
        <ele>586.5</ele>
        <time>2018-08-16T10:02:16Z</time>
      </trkpt>
      <trkpt lat="46.61448" lon="5.85484">
        <ele>586.7</ele>
        <time>2018-08-16T10:02:28Z</time>
      </trkpt>
      <trkpt lat="46.61441" lon="5.85492">
        <ele>587.2</ele>
        <time>2018-08-16T10:02:47Z</time>
      </trkpt>
      <trkpt lat="46.61439" lon="5.85505">
        <ele>587.6</ele>
        <time>2018-08-16T10:02:57Z</time>
      </trkpt>
      <trkpt lat="46.61432" lon="5.85516">
        <ele>588.2</ele>
        <time>2018-08-16T10:03:12Z</time>
      </trkpt>
      <trkpt lat="46.61431" lon="5.85529">
        <ele>590.2</ele>
        <time>2018-08-16T10:03:28Z</time>
      </trkpt>
      <trkpt lat="46.61424" lon="5.85537">
        <ele>591.7</ele>
        <time>2018-08-16T10:03:43Z</time>
      </trkpt>
      <trkpt lat="46.61415" lon="5.85541">
        <ele>593.3</ele>
        <time>2018-08-16T10:04:03Z</time>
      </trkpt>
      <trkpt lat="46.61407" lon="5.85535">
        <ele>593.9</ele>
        <time>2018-08-16T10:04:11Z</time>
      </trkpt>
      <trkpt lat="46.61396" lon="5.85536">
        <ele>594.7</ele>
        <time>2018-08-16T10:04:20Z</time>
      </trkpt>
      <trkpt lat="46.61401" lon="5.85547">
        <ele>595.7</ele>
        <time>2018-08-16T10:04:42Z</time>
      </trkpt>
      <trkpt lat="46.61405" lon="5.8556">
        <ele>596.4</ele>
        <time>2018-08-16T10:04:56Z</time>
      </trkpt>
      <trkpt lat="46.61408" lon="5.85572">
        <ele>597</ele>
        <time>2018-08-16T10:05:07Z</time>
      </trkpt>
      <trkpt lat="46.61407" lon="5.85585">
        <ele>597.8</ele>
        <time>2018-08-16T10:05:27Z</time>
      </trkpt>
      <trkpt lat="46.61403" lon="5.85597">
        <ele>598.6</ele>
        <time>2018-08-16T10:05:43Z</time>
      </trkpt>
      <trkpt lat="46.61398" lon="5.8561">
        <ele>598.9</ele>
        <time>2018-08-16T10:05:49Z</time>
      </trkpt>
      <trkpt lat="46.6139" lon="5.85619">
        <ele>599.4</ele>
        <time>2018-08-16T10:05:58Z</time>
      </trkpt>
      <trkpt lat="46.6139" lon="5.85632">
        <ele>600.2</ele>
        <time>2018-08-16T10:06:13Z</time>
      </trkpt>
      <trkpt lat="46.61389" lon="5.85645">
        <ele>601.2</ele>
        <time>2018-08-16T10:06:26Z</time>
      </trkpt>
      <trkpt lat="46.61386" lon="5.85658">
        <ele>603.5</ele>
        <time>2018-08-16T10:07:01Z</time>
      </trkpt>
      <trkpt lat="46.61386" lon="5.85672">
        <ele>606.9</ele>
        <time>2018-08-16T10:07:41Z</time>
      </trkpt>
      <trkpt lat="46.61386" lon="5.85686">
        <ele>608.4</ele>
        <time>2018-08-16T10:07:59Z</time>
      </trkpt>
      <trkpt lat="46.61385" lon="5.857">
        <ele>610.7</ele>
        <time>2018-08-16T10:08:26Z</time>
      </trkpt>
      <trkpt lat="46.61379" lon="5.8571">
        <ele>612.9</ele>
        <time>2018-08-16T10:08:47Z</time>
      </trkpt>
      <trkpt lat="46.61373" lon="5.85722">
        <ele>615.4</ele>
        <time>2018-08-16T10:09:11Z</time>
      </trkpt>
      <trkpt lat="46.61369" lon="5.85734">
        <ele>616.2</ele>
        <time>2018-08-16T10:09:20Z</time>
      </trkpt>
      <trkpt lat="46.61367" lon="5.85748">
        <ele>623.7</ele>
        <time>2018-08-16T10:11:09Z</time>
      </trkpt>
      <trkpt lat="46.61367" lon="5.85763">
        <ele>625.2</ele>
        <time>2018-08-16T10:11:15Z</time>
      </trkpt>
      <trkpt lat="46.61368" lon="5.85777">
        <ele>630.3</ele>
        <time>2018-08-16T10:11:46Z</time>
      </trkpt>
      <trkpt lat="46.61364" lon="5.8579">
        <ele>633.9</ele>
        <time>2018-08-16T10:12:15Z</time>
      </trkpt>
      <trkpt lat="46.61365" lon="5.85803">
        <ele>634.7</ele>
        <time>2018-08-16T10:12:24Z</time>
      </trkpt>
      <trkpt lat="46.61365" lon="5.85816">
        <ele>636.1</ele>
        <time>2018-08-16T10:12:39Z</time>
      </trkpt>
      <trkpt lat="46.61367" lon="5.85829">
        <ele>639.3</ele>
        <time>2018-08-16T10:13:11Z</time>
      </trkpt>
      <trkpt lat="46.61369" lon="5.85843">
        <ele>642.4</ele>
        <time>2018-08-16T10:13:46Z</time>
      </trkpt>
      <trkpt lat="46.61373" lon="5.85831">
        <ele>644.3</ele>
        <time>2018-08-16T10:14:21Z</time>
      </trkpt>
      <trkpt lat="46.61373" lon="5.85845">
        <ele>645.5</ele>
        <time>2018-08-16T10:14:39Z</time>
      </trkpt>
      <trkpt lat="46.61369" lon="5.85857">
        <ele>647.6</ele>
        <time>2018-08-16T10:15:05Z</time>
      </trkpt>
      <trkpt lat="46.61369" lon="5.85871">
        <ele>650</ele>
        <time>2018-08-16T10:15:44Z</time>
      </trkpt>
      <trkpt lat="46.61375" lon="5.85861">
        <ele>656</ele>
        <time>2018-08-16T10:17:41Z</time>
      </trkpt>
      <trkpt lat="46.6137" lon="5.85876">
        <ele>656.9</ele>
        <time>2018-08-16T10:17:58Z</time>
      </trkpt>
      <trkpt lat="46.61376" lon="5.85886">
        <ele>657.4</ele>
        <time>2018-08-16T10:18:13Z</time>
      </trkpt>
      <trkpt lat="46.61382" lon="5.85896">
        <ele>657.9</ele>
        <time>2018-08-16T10:18:24Z</time>
      </trkpt>
      <trkpt lat="46.6139" lon="5.85888">
        <ele>658.6</ele>
        <time>2018-08-16T10:18:43Z</time>
      </trkpt>
      <trkpt lat="46.61394" lon="5.85901">
        <ele>658.9</ele>
        <time>2018-08-16T10:18:54Z</time>
      </trkpt>
      <trkpt lat="46.61395" lon="5.85914">
        <ele>659.2</ele>
        <time>2018-08-16T10:19:06Z</time>
      </trkpt>
      <trkpt lat="46.61402" lon="5.85924">
        <ele>660.5</ele>
        <time>2018-08-16T10:19:31Z</time>
      </trkpt>
      <trkpt lat="46.61406" lon="5.85938">
        <ele>661.5</ele>
        <time>2018-08-16T10:19:52Z</time>
      </trkpt>
      <trkpt lat="46.61407" lon="5.85955">
        <ele>663.2</ele>
        <time>2018-08-16T10:20:13Z</time>
      </trkpt>
      <trkpt lat="46.61409" lon="5.85968">
        <ele>663.9</ele>
        <time>2018-08-16T10:20:21Z</time>
      </trkpt>
      <trkpt lat="46.61412" lon="5.85982">
        <ele>665</ele>
        <time>2018-08-16T10:20:36Z</time>
      </trkpt>
      <trkpt lat="46.61411" lon="5.85995">
        <ele>666.1</ele>
        <time>2018-08-16T10:20:52Z</time>
      </trkpt>
      <trkpt lat="46.61413" lon="5.86008">
        <ele>667</ele>
        <time>2018-08-16T10:21:07Z</time>
      </trkpt>
      <trkpt lat="46.61417" lon="5.86021">
        <ele>667.8</ele>
        <time>2018-08-16T10:21:29Z</time>
      </trkpt>
      <trkpt lat="46.61421" lon="5.86034">
        <ele>668.7</ele>
        <time>2018-08-16T10:21:55Z</time>
      </trkpt>
      <trkpt lat="46.61427" lon="5.86044">
        <ele>669.3</ele>
        <time>2018-08-16T10:22:25Z</time>
      </trkpt>
      <trkpt lat="46.61436" lon="5.86046">
        <ele>669.2</ele>
        <time>2018-08-16T10:22:40Z</time>
      </trkpt>
      <trkpt lat="46.61445" lon="5.86053">
        <ele>669.2</ele>
        <time>2018-08-16T10:22:46Z</time>
      </trkpt>
      <trkpt lat="46.61454" lon="5.86059">
        <ele>669.3</ele>
        <time>2018-08-16T10:22:55Z</time>
      </trkpt>
      <trkpt lat="46.6146" lon="5.8607">
        <ele>670.4</ele>
        <time>2018-08-16T10:23:16Z</time>
      </trkpt>
      <trkpt lat="46.61465" lon="5.86081">
        <ele>671.3</ele>
        <time>2018-08-16T10:23:30Z</time>
      </trkpt>
      <trkpt lat="46.61471" lon="5.86093">
        <ele>672.6</ele>
        <time>2018-08-16T10:23:47Z</time>
      </trkpt>
      <trkpt lat="46.61472" lon="5.86106">
        <ele>674.6</ele>
        <time>2018-08-16T10:24:19Z</time>
      </trkpt>
      <trkpt lat="46.61475" lon="5.86119">
        <ele>676.1</ele>
        <time>2018-08-16T10:24:38Z</time>
      </trkpt>
      <trkpt lat="46.61479" lon="5.86131">
        <ele>678.5</ele>
        <time>2018-08-16T10:25:19Z</time>
      </trkpt>
      <trkpt lat="46.61481" lon="5.86144">
        <ele>681.1</ele>
        <time>2018-08-16T10:25:37Z</time>
      </trkpt>
      <trkpt lat="46.61484" lon="5.86157">
        <ele>682.5</ele>
        <time>2018-08-16T10:25:49Z</time>
      </trkpt>
      <trkpt lat="46.61491" lon="5.86166">
        <ele>684.4</ele>
        <time>2018-08-16T10:26:07Z</time>
      </trkpt>
      <trkpt lat="46.61496" lon="5.86177">
        <ele>685.3</ele>
        <time>2018-08-16T10:26:26Z</time>
      </trkpt>
      <trkpt lat="46.61497" lon="5.86191">
        <ele>687.1</ele>
        <time>2018-08-16T10:27:04Z</time>
      </trkpt>
      <trkpt lat="46.615" lon="5.86203">
        <ele>687.6</ele>
        <time>2018-08-16T10:27:16Z</time>
      </trkpt>
      <trkpt lat="46.61502" lon="5.86216">
        <ele>687.9</ele>
        <time>2018-08-16T10:27:27Z</time>
      </trkpt>
      <trkpt lat="46.61504" lon="5.8623">
        <ele>688.4</ele>
        <time>2018-08-16T10:27:47Z</time>
      </trkpt>
      <trkpt lat="46.61507" lon="5.86243">
        <ele>689.3</ele>
        <time>2018-08-16T10:28:17Z</time>
      </trkpt>
      <trkpt lat="46.61513" lon="5.86254">
        <ele>689.6</ele>
        <time>2018-08-16T10:28:27Z</time>
      </trkpt>
      <trkpt lat="46.61518" lon="5.86265">
        <ele>690.6</ele>
        <time>2018-08-16T10:28:54Z</time>
      </trkpt>
      <trkpt lat="46.61527" lon="5.8627">
        <ele>692.2</ele>
        <time>2018-08-16T10:29:30Z</time>
      </trkpt>
      <trkpt lat="46.6153" lon="5.86283">
        <ele>693.2</ele>
        <time>2018-08-16T10:29:45Z</time>
      </trkpt>
      <trkpt lat="46.61532" lon="5.86296">
        <ele>694.3</ele>
        <time>2018-08-16T10:30:00Z</time>
      </trkpt>
      <trkpt lat="46.61534" lon="5.86309">
        <ele>695</ele>
        <time>2018-08-16T10:30:10Z</time>
      </trkpt>
      <trkpt lat="46.61537" lon="5.86322">
        <ele>695.5</ele>
        <time>2018-08-16T10:30:18Z</time>
      </trkpt>
      <trkpt lat="46.6154" lon="5.86335">
        <ele>697.1</ele>
        <time>2018-08-16T10:30:46Z</time>
      </trkpt>
      <trkpt lat="46.61537" lon="5.86348">
        <ele>697.9</ele>
        <time>2018-08-16T10:31:02Z</time>
      </trkpt>
      <trkpt lat="46.61532" lon="5.8636">
        <ele>699.4</ele>
        <time>2018-08-16T10:31:34Z</time>
      </trkpt>
      <trkpt lat="46.61526" lon="5.86369">
        <ele>700.2</ele>
        <time>2018-08-16T10:31:55Z</time>
      </trkpt>
      <trkpt lat="46.61532" lon="5.86379">
        <ele>700.9</ele>
        <time>2018-08-16T10:32:21Z</time>
      </trkpt>
      <trkpt lat="46.61541" lon="5.86386">
        <ele>701.3</ele>
        <time>2018-08-16T10:33:02Z</time>
      </trkpt>
      <trkpt lat="46.61539" lon="5.86397">
        <ele>701.4</ele>
        <time>2018-08-16T10:33:55Z</time>
      </trkpt>
      <trkpt lat="46.61538" lon="5.86383">
        <ele>709</ele>
        <time>2018-08-16T11:07:25Z</time>
      </trkpt>
      <trkpt lat="46.61529" lon="5.86377">
        <ele>708.7</ele>
        <time>2018-08-16T11:07:33Z</time>
      </trkpt>
      <trkpt lat="46.61521" lon="5.86369">
        <ele>708.3</ele>
        <time>2018-08-16T11:07:46Z</time>
      </trkpt>
      <trkpt lat="46.61513" lon="5.86377">
        <ele>706.8</ele>
        <time>2018-08-16T11:08:42Z</time>
      </trkpt>
      <trkpt lat="46.61515" lon="5.86391">
        <ele>705.5</ele>
        <time>2018-08-16T11:09:14Z</time>
      </trkpt>
      <trkpt lat="46.61516" lon="5.86404">
        <ele>704.8</ele>
        <time>2018-08-16T11:09:28Z</time>
      </trkpt>
      <trkpt lat="46.6152" lon="5.86416">
        <ele>704.1</ele>
        <time>2018-08-16T11:09:54Z</time>
      </trkpt>
      <trkpt lat="46.61524" lon="5.86428">
        <ele>703.7</ele>
        <time>2018-08-16T11:10:31Z</time>
      </trkpt>
      <trkpt lat="46.61516" lon="5.86436">
        <ele>703.4</ele>
        <time>2018-08-16T11:10:46Z</time>
      </trkpt>
      <trkpt lat="46.61508" lon="5.86443">
        <ele>703</ele>
        <time>2018-08-16T11:11:05Z</time>
      </trkpt>
      <trkpt lat="46.61504" lon="5.86457">
        <ele>703</ele>
        <time>2018-08-16T11:11:25Z</time>
      </trkpt>
      <trkpt lat="46.61505" lon="5.86471">
        <ele>703.1</ele>
        <time>2018-08-16T11:11:38Z</time>
      </trkpt>
      <trkpt lat="46.61501" lon="5.86483">
        <ele>703.1</ele>
        <time>2018-08-16T11:11:59Z</time>
      </trkpt>
      <trkpt lat="46.61502" lon="5.86498">
        <ele>703.2</ele>
        <time>2018-08-16T11:12:31Z</time>
      </trkpt>
      <trkpt lat="46.61507" lon="5.86511">
        <ele>703.3</ele>
        <time>2018-08-16T11:12:39Z</time>
      </trkpt>
      <trkpt lat="46.6151" lon="5.86523">
        <ele>703.2</ele>
        <time>2018-08-16T11:12:56Z</time>
      </trkpt>
      <trkpt lat="46.61511" lon="5.86537">
        <ele>703.1</ele>
        <time>2018-08-16T11:13:09Z</time>
      </trkpt>
      <trkpt lat="46.61509" lon="5.86549">
        <ele>702.9</ele>
        <time>2018-08-16T11:13:26Z</time>
      </trkpt>
      <trkpt lat="46.61507" lon="5.86564">
        <ele>702.8</ele>
        <time>2018-08-16T11:13:35Z</time>
      </trkpt>
      <trkpt lat="46.61504" lon="5.86578">
        <ele>702.6</ele>
        <time>2018-08-16T11:14:29Z</time>
      </trkpt>
      <trkpt lat="46.61503" lon="5.86591">
        <ele>702.6</ele>
        <time>2018-08-16T11:14:41Z</time>
      </trkpt>
      <trkpt lat="46.61506" lon="5.86604">
        <ele>702.5</ele>
        <time>2018-08-16T11:15:14Z</time>
      </trkpt>
      <trkpt lat="46.61507" lon="5.86617">
        <ele>702.6</ele>
        <time>2018-08-16T11:15:22Z</time>
      </trkpt>
      <trkpt lat="46.61508" lon="5.8663">
        <ele>702.6</ele>
        <time>2018-08-16T11:15:34Z</time>
      </trkpt>
      <trkpt lat="46.61502" lon="5.86642">
        <ele>702.7</ele>
        <time>2018-08-16T11:15:54Z</time>
      </trkpt>
      <trkpt lat="46.61497" lon="5.86653">
        <ele>702.9</ele>
        <time>2018-08-16T11:16:19Z</time>
      </trkpt>
      <trkpt lat="46.61488" lon="5.86657">
        <ele>703</ele>
        <time>2018-08-16T11:16:35Z</time>
      </trkpt>
      <trkpt lat="46.61478" lon="5.86662">
        <ele>703.1</ele>
        <time>2018-08-16T11:16:47Z</time>
      </trkpt>
      <trkpt lat="46.6147" lon="5.86669">
        <ele>703.1</ele>
        <time>2018-08-16T11:16:57Z</time>
      </trkpt>
      <trkpt lat="46.61463" lon="5.86678">
        <ele>703.1</ele>
        <time>2018-08-16T11:17:06Z</time>
      </trkpt>
      <trkpt lat="46.61457" lon="5.86689">
        <ele>703.2</ele>
        <time>2018-08-16T11:17:25Z</time>
      </trkpt>
      <trkpt lat="46.61452" lon="5.86701">
        <ele>703.2</ele>
        <time>2018-08-16T11:17:35Z</time>
      </trkpt>
      <trkpt lat="46.6145" lon="5.86714">
        <ele>703.2</ele>
        <time>2018-08-16T11:17:40Z</time>
      </trkpt>
      <trkpt lat="46.61448" lon="5.86728">
        <ele>703.3</ele>
        <time>2018-08-16T11:17:51Z</time>
      </trkpt>
      <trkpt lat="46.61444" lon="5.8674">
        <ele>703.5</ele>
        <time>2018-08-16T11:18:02Z</time>
      </trkpt>
      <trkpt lat="46.61441" lon="5.86753">
        <ele>703.8</ele>
        <time>2018-08-16T11:18:16Z</time>
      </trkpt>
      <trkpt lat="46.61438" lon="5.86768">
        <ele>703.9</ele>
        <time>2018-08-16T11:18:23Z</time>
      </trkpt>
      <trkpt lat="46.6143" lon="5.86778">
        <ele>704.1</ele>
        <time>2018-08-16T11:18:38Z</time>
      </trkpt>
      <trkpt lat="46.61425" lon="5.86789">
        <ele>704.8</ele>
        <time>2018-08-16T11:19:11Z</time>
      </trkpt>
      <trkpt lat="46.61419" lon="5.868">
        <ele>704.9</ele>
        <time>2018-08-16T11:19:19Z</time>
      </trkpt>
      <trkpt lat="46.61416" lon="5.86814">
        <ele>705.1</ele>
        <time>2018-08-16T11:19:28Z</time>
      </trkpt>
      <trkpt lat="46.61412" lon="5.86826">
        <ele>705.3</ele>
        <time>2018-08-16T11:19:44Z</time>
      </trkpt>
      <trkpt lat="46.61411" lon="5.86839">
        <ele>705.5</ele>
        <time>2018-08-16T11:19:57Z</time>
      </trkpt>
      <trkpt lat="46.61404" lon="5.86848">
        <ele>705.9</ele>
        <time>2018-08-16T11:20:28Z</time>
      </trkpt>
      <trkpt lat="46.61407" lon="5.8686">
        <ele>708.2</ele>
        <time>2018-08-16T11:21:58Z</time>
      </trkpt>
      <trkpt lat="46.61404" lon="5.86873">
        <ele>709.4</ele>
        <time>2018-08-16T11:22:20Z</time>
      </trkpt>
      <trkpt lat="46.61395" lon="5.86874">
        <ele>710.9</ele>
        <time>2018-08-16T11:23:03Z</time>
      </trkpt>
      <trkpt lat="46.61389" lon="5.86883">
        <ele>711.2</ele>
        <time>2018-08-16T11:23:29Z</time>
      </trkpt>
      <trkpt lat="46.61381" lon="5.86893">
        <ele>711.4</ele>
        <time>2018-08-16T11:23:41Z</time>
      </trkpt>
      <trkpt lat="46.61376" lon="5.86906">
        <ele>711.6</ele>
        <time>2018-08-16T11:23:52Z</time>
      </trkpt>
      <trkpt lat="46.61367" lon="5.86914">
        <ele>711.8</ele>
        <time>2018-08-16T11:24:06Z</time>
      </trkpt>
      <trkpt lat="46.6136" lon="5.86921">
        <ele>711.9</ele>
        <time>2018-08-16T11:24:18Z</time>
      </trkpt>
      <trkpt lat="46.61356" lon="5.86933">
        <ele>712</ele>
        <time>2018-08-16T11:24:27Z</time>
      </trkpt>
      <trkpt lat="46.61353" lon="5.86946">
        <ele>712.2</ele>
        <time>2018-08-16T11:24:39Z</time>
      </trkpt>
      <trkpt lat="46.61351" lon="5.8696">
        <ele>712.3</ele>
        <time>2018-08-16T11:24:50Z</time>
      </trkpt>
      <trkpt lat="46.61347" lon="5.86974">
        <ele>712.4</ele>
        <time>2018-08-16T11:24:58Z</time>
      </trkpt>
      <trkpt lat="46.61341" lon="5.86984">
        <ele>712.5</ele>
        <time>2018-08-16T11:25:11Z</time>
      </trkpt>
      <trkpt lat="46.61338" lon="5.86998">
        <ele>712.5</ele>
        <time>2018-08-16T11:25:24Z</time>
      </trkpt>
      <trkpt lat="46.61334" lon="5.87011">
        <ele>712.5</ele>
        <time>2018-08-16T11:25:34Z</time>
      </trkpt>
      <trkpt lat="46.6133" lon="5.87024">
        <ele>712.6</ele>
        <time>2018-08-16T11:25:42Z</time>
      </trkpt>
      <trkpt lat="46.61335" lon="5.87035">
        <ele>712.6</ele>
        <time>2018-08-16T11:25:49Z</time>
      </trkpt>
      <trkpt lat="46.61332" lon="5.87048">
        <ele>712.7</ele>
        <time>2018-08-16T11:26:10Z</time>
      </trkpt>
      <trkpt lat="46.61334" lon="5.87062">
        <ele>712.9</ele>
        <time>2018-08-16T11:26:24Z</time>
      </trkpt>
      <trkpt lat="46.61338" lon="5.87075">
        <ele>713.1</ele>
        <time>2018-08-16T11:26:35Z</time>
      </trkpt>
      <trkpt lat="46.61342" lon="5.87088">
        <ele>713.3</ele>
        <time>2018-08-16T11:26:50Z</time>
      </trkpt>
      <trkpt lat="46.61342" lon="5.87101">
        <ele>713.5</ele>
        <time>2018-08-16T11:26:59Z</time>
      </trkpt>
      <trkpt lat="46.6134" lon="5.87115">
        <ele>713.6</ele>
        <time>2018-08-16T11:27:06Z</time>
      </trkpt>
      <trkpt lat="46.61333" lon="5.87126">
        <ele>713.8</ele>
        <time>2018-08-16T11:27:15Z</time>
      </trkpt>
      <trkpt lat="46.61329" lon="5.87139">
        <ele>713.8</ele>
        <time>2018-08-16T11:27:21Z</time>
      </trkpt>
      <trkpt lat="46.61331" lon="5.87152">
        <ele>714.1</ele>
        <time>2018-08-16T11:27:35Z</time>
      </trkpt>
      <trkpt lat="46.61331" lon="5.87165">
        <ele>714.4</ele>
        <time>2018-08-16T11:27:46Z</time>
      </trkpt>
      <trkpt lat="46.61329" lon="5.87179">
        <ele>714.6</ele>
        <time>2018-08-16T11:27:55Z</time>
      </trkpt>
      <trkpt lat="46.61327" lon="5.87192">
        <ele>714.9</ele>
        <time>2018-08-16T11:28:04Z</time>
      </trkpt>
      <trkpt lat="46.61325" lon="5.87205">
        <ele>715.1</ele>
        <time>2018-08-16T11:28:16Z</time>
      </trkpt>
      <trkpt lat="46.61324" lon="5.87219">
        <ele>715.3</ele>
        <time>2018-08-16T11:28:25Z</time>
      </trkpt>
      <trkpt lat="46.61328" lon="5.87232">
        <ele>715.5</ele>
        <time>2018-08-16T11:28:40Z</time>
      </trkpt>
      <trkpt lat="46.61333" lon="5.87244">
        <ele>715.6</ele>
        <time>2018-08-16T11:28:49Z</time>
      </trkpt>
      <trkpt lat="46.61337" lon="5.87257">
        <ele>715.8</ele>
        <time>2018-08-16T11:28:57Z</time>
      </trkpt>
      <trkpt lat="46.61336" lon="5.8727">
        <ele>716</ele>
        <time>2018-08-16T11:29:05Z</time>
      </trkpt>
      <trkpt lat="46.61337" lon="5.87285">
        <ele>716.2</ele>
        <time>2018-08-16T11:29:14Z</time>
      </trkpt>
      <trkpt lat="46.61343" lon="5.87295">
        <ele>716.5</ele>
        <time>2018-08-16T11:29:25Z</time>
      </trkpt>
      <trkpt lat="46.61347" lon="5.87308">
        <ele>716.8</ele>
        <time>2018-08-16T11:29:36Z</time>
      </trkpt>
      <trkpt lat="46.61345" lon="5.87323">
        <ele>717</ele>
        <time>2018-08-16T11:29:44Z</time>
      </trkpt>
      <trkpt lat="46.61348" lon="5.87336">
        <ele>717.3</ele>
        <time>2018-08-16T11:29:56Z</time>
      </trkpt>
      <trkpt lat="46.61354" lon="5.87349">
        <ele>717.6</ele>
        <time>2018-08-16T11:30:09Z</time>
      </trkpt>
      <trkpt lat="46.61362" lon="5.87358">
        <ele>717.7</ele>
        <time>2018-08-16T11:30:16Z</time>
      </trkpt>
      <trkpt lat="46.61367" lon="5.8737">
        <ele>717.8</ele>
        <time>2018-08-16T11:30:37Z</time>
      </trkpt>
      <trkpt lat="46.61373" lon="5.8738">
        <ele>717.8</ele>
        <time>2018-08-16T11:30:45Z</time>
      </trkpt>
      <trkpt lat="46.61377" lon="5.87392">
        <ele>717.8</ele>
        <time>2018-08-16T11:30:55Z</time>
      </trkpt>
      <trkpt lat="46.61375" lon="5.87407">
        <ele>717.8</ele>
        <time>2018-08-16T11:31:07Z</time>
      </trkpt>
      <trkpt lat="46.61371" lon="5.87418">
        <ele>717.8</ele>
        <time>2018-08-16T11:31:15Z</time>
      </trkpt>
      <trkpt lat="46.61361" lon="5.87418">
        <ele>718.3</ele>
        <time>2018-08-16T11:31:39Z</time>
      </trkpt>
      <trkpt lat="46.61353" lon="5.87427">
        <ele>718.5</ele>
        <time>2018-08-16T11:31:47Z</time>
      </trkpt>
      <trkpt lat="46.61348" lon="5.8744">
        <ele>718.5</ele>
        <time>2018-08-16T11:31:56Z</time>
      </trkpt>
      <trkpt lat="46.61347" lon="5.87454">
        <ele>718.3</ele>
        <time>2018-08-16T11:32:04Z</time>
      </trkpt>
      <trkpt lat="46.61344" lon="5.87466">
        <ele>717.8</ele>
        <time>2018-08-16T11:32:19Z</time>
      </trkpt>
      <trkpt lat="46.61339" lon="5.87478">
        <ele>717.7</ele>
        <time>2018-08-16T11:32:30Z</time>
      </trkpt>
      <trkpt lat="46.61332" lon="5.87488">
        <ele>717.8</ele>
        <time>2018-08-16T11:32:42Z</time>
      </trkpt>
      <trkpt lat="46.61325" lon="5.87498">
        <ele>718</ele>
        <time>2018-08-16T11:32:54Z</time>
      </trkpt>
      <trkpt lat="46.61316" lon="5.87506">
        <ele>718.6</ele>
        <time>2018-08-16T11:33:19Z</time>
      </trkpt>
      <trkpt lat="46.61309" lon="5.87513">
        <ele>719</ele>
        <time>2018-08-16T11:33:29Z</time>
      </trkpt>
      <trkpt lat="46.61304" lon="5.87525">
        <ele>719.6</ele>
        <time>2018-08-16T11:33:43Z</time>
      </trkpt>
      <trkpt lat="46.61298" lon="5.87536">
        <ele>720.1</ele>
        <time>2018-08-16T11:33:57Z</time>
      </trkpt>
      <trkpt lat="46.61295" lon="5.8755">
        <ele>720.4</ele>
        <time>2018-08-16T11:34:08Z</time>
      </trkpt>
      <trkpt lat="46.6129" lon="5.87561">
        <ele>720.9</ele>
        <time>2018-08-16T11:34:18Z</time>
      </trkpt>
      <trkpt lat="46.61285" lon="5.87572">
        <ele>721.4</ele>
        <time>2018-08-16T11:34:26Z</time>
      </trkpt>
      <trkpt lat="46.61285" lon="5.87586">
        <ele>722.3</ele>
        <time>2018-08-16T11:34:42Z</time>
      </trkpt>
      <trkpt lat="46.6128" lon="5.87599">
        <ele>723.2</ele>
        <time>2018-08-16T11:34:58Z</time>
      </trkpt>
      <trkpt lat="46.61274" lon="5.8761">
        <ele>724.1</ele>
        <time>2018-08-16T11:35:08Z</time>
      </trkpt>
      <trkpt lat="46.61271" lon="5.87623">
        <ele>725.1</ele>
        <time>2018-08-16T11:35:20Z</time>
      </trkpt>
      <trkpt lat="46.61268" lon="5.87635">
        <ele>725.8</ele>
        <time>2018-08-16T11:35:28Z</time>
      </trkpt>
      <trkpt lat="46.61266" lon="5.8765">
        <ele>726.5</ele>
        <time>2018-08-16T11:35:42Z</time>
      </trkpt>
      <trkpt lat="46.61265" lon="5.87665">
        <ele>726.9</ele>
        <time>2018-08-16T11:35:52Z</time>
      </trkpt>
      <trkpt lat="46.61264" lon="5.87678">
        <ele>727.1</ele>
        <time>2018-08-16T11:36:00Z</time>
      </trkpt>
      <trkpt lat="46.6126" lon="5.87691">
        <ele>727.3</ele>
        <time>2018-08-16T11:36:09Z</time>
      </trkpt>
      <trkpt lat="46.61258" lon="5.87705">
        <ele>727.8</ele>
        <time>2018-08-16T11:36:23Z</time>
      </trkpt>
      <trkpt lat="46.61254" lon="5.87717">
        <ele>728.2</ele>
        <time>2018-08-16T11:36:35Z</time>
      </trkpt>
      <trkpt lat="46.61249" lon="5.87728">
        <ele>728.5</ele>
        <time>2018-08-16T11:36:43Z</time>
      </trkpt>
      <trkpt lat="46.61241" lon="5.87736">
        <ele>728.9</ele>
        <time>2018-08-16T11:36:55Z</time>
      </trkpt>
      <trkpt lat="46.61236" lon="5.8775">
        <ele>729.2</ele>
        <time>2018-08-16T11:37:05Z</time>
      </trkpt>
      <trkpt lat="46.6123" lon="5.8776">
        <ele>729.4</ele>
        <time>2018-08-16T11:37:15Z</time>
      </trkpt>
      <trkpt lat="46.61228" lon="5.87774">
        <ele>729.6</ele>
        <time>2018-08-16T11:37:27Z</time>
      </trkpt>
      <trkpt lat="46.61225" lon="5.87786">
        <ele>729.6</ele>
        <time>2018-08-16T11:37:35Z</time>
      </trkpt>
      <trkpt lat="46.61219" lon="5.87797">
        <ele>729.7</ele>
        <time>2018-08-16T11:37:46Z</time>
      </trkpt>
      <trkpt lat="46.61218" lon="5.87812">
        <ele>729.7</ele>
        <time>2018-08-16T11:37:58Z</time>
      </trkpt>
      <trkpt lat="46.61218" lon="5.87825">
        <ele>729.8</ele>
        <time>2018-08-16T11:38:11Z</time>
      </trkpt>
      <trkpt lat="46.61215" lon="5.87839">
        <ele>729.8</ele>
        <time>2018-08-16T11:38:22Z</time>
      </trkpt>
      <trkpt lat="46.61209" lon="5.87852">
        <ele>729.8</ele>
        <time>2018-08-16T11:38:31Z</time>
      </trkpt>
      <trkpt lat="46.61204" lon="5.87863">
        <ele>729.9</ele>
        <time>2018-08-16T11:38:39Z</time>
      </trkpt>
      <trkpt lat="46.61201" lon="5.87875">
        <ele>729.9</ele>
        <time>2018-08-16T11:38:54Z</time>
      </trkpt>
      <trkpt lat="46.61194" lon="5.87885">
        <ele>729.8</ele>
        <time>2018-08-16T11:39:00Z</time>
      </trkpt>
      <trkpt lat="46.61189" lon="5.87896">
        <ele>729.7</ele>
        <time>2018-08-16T11:39:14Z</time>
      </trkpt>
      <trkpt lat="46.61188" lon="5.87909">
        <ele>729.5</ele>
        <time>2018-08-16T11:39:33Z</time>
      </trkpt>
      <trkpt lat="46.61179" lon="5.87916">
        <ele>729.5</ele>
        <time>2018-08-16T11:39:47Z</time>
      </trkpt>
      <trkpt lat="46.6117" lon="5.87918">
        <ele>729.5</ele>
        <time>2018-08-16T11:39:59Z</time>
      </trkpt>
      <trkpt lat="46.61161" lon="5.87923">
        <ele>729.6</ele>
        <time>2018-08-16T11:40:33Z</time>
      </trkpt>
      <trkpt lat="46.61154" lon="5.87933">
        <ele>729.6</ele>
        <time>2018-08-16T11:40:46Z</time>
      </trkpt>
      <trkpt lat="46.61147" lon="5.87943">
        <ele>729.8</ele>
        <time>2018-08-16T11:41:03Z</time>
      </trkpt>
      <trkpt lat="46.61141" lon="5.87953">
        <ele>729.7</ele>
        <time>2018-08-16T11:41:11Z</time>
      </trkpt>
      <trkpt lat="46.61138" lon="5.87968">
        <ele>729.2</ele>
        <time>2018-08-16T11:41:22Z</time>
      </trkpt>
      <trkpt lat="46.61134" lon="5.8798">
        <ele>729.1</ele>
        <time>2018-08-16T11:41:28Z</time>
      </trkpt>
      <trkpt lat="46.6113" lon="5.87992">
        <ele>729</ele>
        <time>2018-08-16T11:41:40Z</time>
      </trkpt>
      <trkpt lat="46.61125" lon="5.88003">
        <ele>729.2</ele>
        <time>2018-08-16T11:42:01Z</time>
      </trkpt>
      <trkpt lat="46.61123" lon="5.88017">
        <ele>729.3</ele>
        <time>2018-08-16T11:42:11Z</time>
      </trkpt>
      <trkpt lat="46.6112" lon="5.88031">
        <ele>729.4</ele>
        <time>2018-08-16T11:42:25Z</time>
      </trkpt>
      <trkpt lat="46.61115" lon="5.88044">
        <ele>729.4</ele>
        <time>2018-08-16T11:42:36Z</time>
      </trkpt>
      <trkpt lat="46.6111" lon="5.88055">
        <ele>729.7</ele>
        <time>2018-08-16T11:42:47Z</time>
      </trkpt>
      <trkpt lat="46.61106" lon="5.88067">
        <ele>730.2</ele>
        <time>2018-08-16T11:42:58Z</time>
      </trkpt>
      <trkpt lat="46.61101" lon="5.88078">
        <ele>731.4</ele>
        <time>2018-08-16T11:43:16Z</time>
      </trkpt>
      <trkpt lat="46.61095" lon="5.8809">
        <ele>732.3</ele>
        <time>2018-08-16T11:43:31Z</time>
      </trkpt>
      <trkpt lat="46.6109" lon="5.88101">
        <ele>733</ele>
        <time>2018-08-16T11:43:41Z</time>
      </trkpt>
      <trkpt lat="46.61086" lon="5.88113">
        <ele>733.6</ele>
        <time>2018-08-16T11:43:57Z</time>
      </trkpt>
      <trkpt lat="46.61085" lon="5.88127">
        <ele>733.9</ele>
        <time>2018-08-16T11:44:04Z</time>
      </trkpt>
      <trkpt lat="46.61086" lon="5.8814">
        <ele>734.3</ele>
        <time>2018-08-16T11:44:19Z</time>
      </trkpt>
      <trkpt lat="46.61088" lon="5.88153">
        <ele>734.7</ele>
        <time>2018-08-16T11:44:35Z</time>
      </trkpt>
      <trkpt lat="46.61093" lon="5.88163">
        <ele>734.9</ele>
        <time>2018-08-16T11:44:45Z</time>
      </trkpt>
      <trkpt lat="46.61102" lon="5.8817">
        <ele>735.1</ele>
        <time>2018-08-16T11:44:53Z</time>
      </trkpt>
      <trkpt lat="46.61108" lon="5.88179">
        <ele>735.4</ele>
        <time>2018-08-16T11:45:22Z</time>
      </trkpt>
      <trkpt lat="46.61116" lon="5.88187">
        <ele>735.9</ele>
        <time>2018-08-16T11:45:34Z</time>
      </trkpt>
      <trkpt lat="46.61123" lon="5.88196">
        <ele>736.4</ele>
        <time>2018-08-16T11:45:51Z</time>
      </trkpt>
      <trkpt lat="46.61131" lon="5.88204">
        <ele>736.8</ele>
        <time>2018-08-16T11:46:03Z</time>
      </trkpt>
      <trkpt lat="46.61139" lon="5.88211">
        <ele>737.1</ele>
        <time>2018-08-16T11:46:15Z</time>
      </trkpt>
      <trkpt lat="46.61144" lon="5.88226">
        <ele>737.3</ele>
        <time>2018-08-16T11:46:23Z</time>
      </trkpt>
      <trkpt lat="46.6115" lon="5.88235">
        <ele>737.5</ele>
        <time>2018-08-16T11:46:31Z</time>
      </trkpt>
      <trkpt lat="46.61158" lon="5.88242">
        <ele>737.6</ele>
        <time>2018-08-16T11:46:36Z</time>
      </trkpt>
      <trkpt lat="46.61162" lon="5.88254">
        <ele>737.7</ele>
        <time>2018-08-16T11:46:44Z</time>
      </trkpt>
      <trkpt lat="46.61166" lon="5.88266">
        <ele>738</ele>
        <time>2018-08-16T11:46:57Z</time>
      </trkpt>
      <trkpt lat="46.6117" lon="5.88278">
        <ele>738.1</ele>
        <time>2018-08-16T11:47:07Z</time>
      </trkpt>
      <trkpt lat="46.61169" lon="5.88292">
        <ele>738.2</ele>
        <time>2018-08-16T11:47:18Z</time>
      </trkpt>
      <trkpt lat="46.61161" lon="5.88302">
        <ele>738.2</ele>
        <time>2018-08-16T11:47:26Z</time>
      </trkpt>
      <trkpt lat="46.61158" lon="5.88315">
        <ele>738.2</ele>
        <time>2018-08-16T11:47:37Z</time>
      </trkpt>
      <trkpt lat="46.61162" lon="5.88327">
        <ele>738</ele>
        <time>2018-08-16T11:47:55Z</time>
      </trkpt>
      <trkpt lat="46.6117" lon="5.88333">
        <ele>738</ele>
        <time>2018-08-16T11:48:03Z</time>
      </trkpt>
      <trkpt lat="46.61179" lon="5.88338">
        <ele>738</ele>
        <time>2018-08-16T11:48:11Z</time>
      </trkpt>
      <trkpt lat="46.61188" lon="5.88343">
        <ele>738.1</ele>
        <time>2018-08-16T11:48:21Z</time>
      </trkpt>
      <trkpt lat="46.61197" lon="5.88351">
        <ele>738.3</ele>
        <time>2018-08-16T11:48:32Z</time>
      </trkpt>
      <trkpt lat="46.61205" lon="5.88356">
        <ele>738.8</ele>
        <time>2018-08-16T11:49:50Z</time>
      </trkpt>
      <trkpt lat="46.61214" lon="5.88357">
        <ele>739.1</ele>
        <time>2018-08-16T11:50:09Z</time>
      </trkpt>
      <trkpt lat="46.61222" lon="5.88365">
        <ele>739.3</ele>
        <time>2018-08-16T11:50:21Z</time>
      </trkpt>
      <trkpt lat="46.61228" lon="5.88376">
        <ele>739.5</ele>
        <time>2018-08-16T11:50:34Z</time>
      </trkpt>
      <trkpt lat="46.61236" lon="5.88384">
        <ele>739.8</ele>
        <time>2018-08-16T11:50:55Z</time>
      </trkpt>
      <trkpt lat="46.61245" lon="5.88381">
        <ele>739.9</ele>
        <time>2018-08-16T11:51:04Z</time>
      </trkpt>
      <trkpt lat="46.61254" lon="5.88378">
        <ele>739.9</ele>
        <time>2018-08-16T11:51:10Z</time>
      </trkpt>
      <trkpt lat="46.61264" lon="5.88376">
        <ele>740</ele>
        <time>2018-08-16T11:51:18Z</time>
      </trkpt>
      <trkpt lat="46.61274" lon="5.88373">
        <ele>740</ele>
        <time>2018-08-16T11:51:26Z</time>
      </trkpt>
      <trkpt lat="46.61282" lon="5.88366">
        <ele>740.1</ele>
        <time>2018-08-16T11:51:33Z</time>
      </trkpt>
      <trkpt lat="46.61291" lon="5.88362">
        <ele>740.2</ele>
        <time>2018-08-16T11:51:44Z</time>
      </trkpt>
      <trkpt lat="46.613" lon="5.88356">
        <ele>740.2</ele>
        <time>2018-08-16T11:51:55Z</time>
      </trkpt>
      <trkpt lat="46.61309" lon="5.88351">
        <ele>740.3</ele>
        <time>2018-08-16T11:52:09Z</time>
      </trkpt>
      <trkpt lat="46.61318" lon="5.88347">
        <ele>740.4</ele>
        <time>2018-08-16T11:52:16Z</time>
      </trkpt>
      <trkpt lat="46.61326" lon="5.88338">
        <ele>740.4</ele>
        <time>2018-08-16T11:52:26Z</time>
      </trkpt>
      <trkpt lat="46.61335" lon="5.88336">
        <ele>740.5</ele>
        <time>2018-08-16T11:52:35Z</time>
      </trkpt>
      <trkpt lat="46.61343" lon="5.88331">
        <ele>740.6</ele>
        <time>2018-08-16T11:52:49Z</time>
      </trkpt>
      <trkpt lat="46.61351" lon="5.88324">
        <ele>740.8</ele>
        <time>2018-08-16T11:53:04Z</time>
      </trkpt>
      <trkpt lat="46.6136" lon="5.88318">
        <ele>740.9</ele>
        <time>2018-08-16T11:53:10Z</time>
      </trkpt>
      <trkpt lat="46.61368" lon="5.88312">
        <ele>741.3</ele>
        <time>2018-08-16T11:53:23Z</time>
      </trkpt>
      <trkpt lat="46.61377" lon="5.88308">
        <ele>741.7</ele>
        <time>2018-08-16T11:53:39Z</time>
      </trkpt>
      <trkpt lat="46.61384" lon="5.88298">
        <ele>743.3</ele>
        <time>2018-08-16T11:55:38Z</time>
      </trkpt>
      <trkpt lat="46.61389" lon="5.88285">
        <ele>743.5</ele>
        <time>2018-08-16T11:55:46Z</time>
      </trkpt>
      <trkpt lat="46.61397" lon="5.88279">
        <ele>743.6</ele>
        <time>2018-08-16T11:55:53Z</time>
      </trkpt>
      <trkpt lat="46.61407" lon="5.88276">
        <ele>743.8</ele>
        <time>2018-08-16T11:56:05Z</time>
      </trkpt>
      <trkpt lat="46.61416" lon="5.88272">
        <ele>743.9</ele>
        <time>2018-08-16T11:56:12Z</time>
      </trkpt>
      <trkpt lat="46.61425" lon="5.88272">
        <ele>744.1</ele>
        <time>2018-08-16T11:56:23Z</time>
      </trkpt>
      <trkpt lat="46.61434" lon="5.88266">
        <ele>744.2</ele>
        <time>2018-08-16T11:56:31Z</time>
      </trkpt>
      <trkpt lat="46.61442" lon="5.88259">
        <ele>744.4</ele>
        <time>2018-08-16T11:56:49Z</time>
      </trkpt>
      <trkpt lat="46.6145" lon="5.88252">
        <ele>744.6</ele>
        <time>2018-08-16T11:57:03Z</time>
      </trkpt>
      <trkpt lat="46.61459" lon="5.88248">
        <ele>744.8</ele>
        <time>2018-08-16T11:57:22Z</time>
      </trkpt>
      <trkpt lat="46.61467" lon="5.8824">
        <ele>744.9</ele>
        <time>2018-08-16T11:57:31Z</time>
      </trkpt>
      <trkpt lat="46.61475" lon="5.88233">
        <ele>745</ele>
        <time>2018-08-16T11:57:37Z</time>
      </trkpt>
      <trkpt lat="46.61484" lon="5.88228">
        <ele>745.2</ele>
        <time>2018-08-16T11:57:50Z</time>
      </trkpt>
      <trkpt lat="46.61494" lon="5.88227">
        <ele>745.3</ele>
        <time>2018-08-16T11:57:56Z</time>
      </trkpt>
      <trkpt lat="46.61503" lon="5.88224">
        <ele>745.4</ele>
        <time>2018-08-16T11:58:04Z</time>
      </trkpt>
      <trkpt lat="46.61511" lon="5.88218">
        <ele>745.7</ele>
        <time>2018-08-16T11:58:44Z</time>
      </trkpt>
      <trkpt lat="46.61519" lon="5.88212">
        <ele>746.1</ele>
        <time>2018-08-16T11:59:01Z</time>
      </trkpt>
      <trkpt lat="46.61528" lon="5.88206">
        <ele>746.3</ele>
        <time>2018-08-16T11:59:12Z</time>
      </trkpt>
      <trkpt lat="46.61537" lon="5.88202">
        <ele>746.4</ele>
        <time>2018-08-16T11:59:18Z</time>
      </trkpt>
      <trkpt lat="46.61545" lon="5.88196">
        <ele>746.6</ele>
        <time>2018-08-16T11:59:29Z</time>
      </trkpt>
      <trkpt lat="46.61554" lon="5.88193">
        <ele>747.2</ele>
        <time>2018-08-16T12:00:11Z</time>
      </trkpt>
      <trkpt lat="46.61563" lon="5.8819">
        <ele>747.5</ele>
        <time>2018-08-16T12:00:22Z</time>
      </trkpt>
      <trkpt lat="46.61572" lon="5.88185">
        <ele>747.8</ele>
        <time>2018-08-16T12:00:32Z</time>
      </trkpt>
      <trkpt lat="46.61582" lon="5.88179">
        <ele>748.1</ele>
        <time>2018-08-16T12:00:47Z</time>
      </trkpt>
      <trkpt lat="46.6159" lon="5.88173">
        <ele>748.3</ele>
        <time>2018-08-16T12:00:54Z</time>
      </trkpt>
      <trkpt lat="46.616" lon="5.8817">
        <ele>748.6</ele>
        <time>2018-08-16T12:01:05Z</time>
      </trkpt>
      <trkpt lat="46.6161" lon="5.88169">
        <ele>748.9</ele>
        <time>2018-08-16T12:01:16Z</time>
      </trkpt>
      <trkpt lat="46.61619" lon="5.88171">
        <ele>749.3</ele>
        <time>2018-08-16T12:01:30Z</time>
      </trkpt>
      <trkpt lat="46.61628" lon="5.88171">
        <ele>749.8</ele>
        <time>2018-08-16T12:01:45Z</time>
      </trkpt>
      <trkpt lat="46.61637" lon="5.88169">
        <ele>750.2</ele>
        <time>2018-08-16T12:02:28Z</time>
      </trkpt>
      <trkpt lat="46.61647" lon="5.88168">
        <ele>750.7</ele>
        <time>2018-08-16T12:02:39Z</time>
      </trkpt>
      <trkpt lat="46.61656" lon="5.88169">
        <ele>751.1</ele>
        <time>2018-08-16T12:02:50Z</time>
      </trkpt>
      <trkpt lat="46.61665" lon="5.88169">
        <ele>751.5</ele>
        <time>2018-08-16T12:03:01Z</time>
      </trkpt>
      <trkpt lat="46.61673" lon="5.88176">
        <ele>751.9</ele>
        <time>2018-08-16T12:03:14Z</time>
      </trkpt>
      <trkpt lat="46.61683" lon="5.88178">
        <ele>752.3</ele>
        <time>2018-08-16T12:03:25Z</time>
      </trkpt>
      <trkpt lat="46.61692" lon="5.88182">
        <ele>752.5</ele>
        <time>2018-08-16T12:03:32Z</time>
      </trkpt>
      <trkpt lat="46.61701" lon="5.88179">
        <ele>752.7</ele>
        <time>2018-08-16T12:03:38Z</time>
      </trkpt>
      <trkpt lat="46.61709" lon="5.88173">
        <ele>752.9</ele>
        <time>2018-08-16T12:03:43Z</time>
      </trkpt>
      <trkpt lat="46.6172" lon="5.88175">
        <ele>753.3</ele>
        <time>2018-08-16T12:03:49Z</time>
      </trkpt>
      <trkpt lat="46.61729" lon="5.8818">
        <ele>754</ele>
        <time>2018-08-16T12:04:02Z</time>
      </trkpt>
      <trkpt lat="46.61736" lon="5.88186">
        <ele>754.9</ele>
        <time>2018-08-16T12:04:37Z</time>
      </trkpt>
    </trkseg>
  </trk>
</gpx>